BEL9TK HKJK-EBBR
Flight info
| Callsign | BEL9TK |
|---|---|
| Flight time | N/A |
| Altitude | 38000 |
| Route | ANTUK2D APKUB UQ293 EKMOG DCT NN UW325 SIPKI UT325 GOVEL UM215 ONUDA UG862 DIR UB730 DJA UA605 CIRTA DCT BUKID DCT GARPU DCT PIGOS DCT BARSO DCT IRMAR DCT KINES DCT VANAS DCT MOBLO DCT UBIMA DCT GILIR DCT PENDU DCT IXILU DCT GIVOR DCT SORAL DCT IBERA N853 DIK Y37 BATTY BATTY7A |
| Aircraft | A333/H-SDE3GHIJ2J3J5M1RVWXY/LB2D1 |
Departure
| Time | 2026-05-06 23:20 |
|---|---|
| Airport | Jomo Kenyatta International Airport (HKJK) |
Arrival
| Time | N/A |
|---|---|
| Airport | Brussels Airport (EBBR) |
| Time | Latitude | Longitude | Altitude | Speed | Heading |
|---|---|---|---|---|---|
| 2026-05-06 23:08 | -1.33054 | 36.92304 | 5334 ft | 0 kts | 88° |
| 2026-05-06 23:10 | -1.33054 | 36.92301 | 5339 ft | 2 kts | 87° |
| 2026-05-06 23:10 | -1.33055 | 36.92284 | 5339 ft | 2 kts | 88° |
| 2026-05-06 23:11 | -1.33056 | 36.92268 | 5338 ft | 2 kts | 87° |
| 2026-05-06 23:11 | -1.33056 | 36.92251 | 5338 ft | 2 kts | 102° |
| 2026-05-06 23:11 | -1.33050 | 36.92236 | 5340 ft | 2 kts | 141° |
| 2026-05-06 23:11 | -1.33036 | 36.92228 | 5339 ft | 2 kts | 153° |
| 2026-05-06 23:12 | -1.33021 | 36.92222 | 5338 ft | 2 kts | 164° |
| 2026-05-06 23:12 | -1.33006 | 36.92219 | 5337 ft | 1 kts | 187° |
| 2026-05-06 23:12 | -1.33003 | 36.92219 | 5337 ft | 0 kts | 193° |
| 2026-05-06 23:13 | -1.33004 | 36.92219 | 5337 ft | 1 kts | 193° |
| 2026-05-06 23:13 | -1.33027 | 36.92217 | 5339 ft | 7 kts | 181° |
| 2026-05-06 23:13 | -1.33094 | 36.92220 | 5335 ft | 12 kts | 171° |
| 2026-05-06 23:14 | -1.33182 | 36.92252 | 5337 ft | 14 kts | 151° |
| 2026-05-06 23:14 | -1.33280 | 36.92280 | 5336 ft | 15 kts | 174° |
| 2026-05-06 23:14 | -1.33364 | 36.92299 | 5339 ft | 8 kts | 142° |
| 2026-05-06 23:14 | -1.33410 | 36.92330 | 5339 ft | 8 kts | 155° |
| 2026-05-06 23:15 | -1.33460 | 36.92321 | 5338 ft | 8 kts | 227° |
| 2026-05-06 23:15 | -1.33498 | 36.92272 | 5339 ft | 10 kts | 234° |
| 2026-05-06 23:15 | -1.33505 | 36.92205 | 5337 ft | 11 kts | 301° |
| 2026-05-06 23:15 | -1.33447 | 36.92152 | 5338 ft | 12 kts | 323° |
| 2026-05-06 23:16 | -1.33374 | 36.92099 | 5338 ft | 14 kts | 323° |
| 2026-05-06 23:16 | -1.33296 | 36.92041 | 5340 ft | 14 kts | 323° |
| 2026-05-06 23:16 | -1.33213 | 36.91982 | 5340 ft | 15 kts | 324° |
| 2026-05-06 23:16 | -1.33125 | 36.91918 | 5336 ft | 16 kts | 324° |
| 2026-05-06 23:17 | -1.33037 | 36.91853 | 5336 ft | 15 kts | 323° |
| 2026-05-06 23:17 | -1.32959 | 36.91796 | 5340 ft | 12 kts | 323° |
| 2026-05-06 23:17 | -1.32904 | 36.91756 | 5344 ft | 8 kts | 323° |
| 2026-05-06 23:17 | -1.32870 | 36.91731 | 5344 ft | 5 kts | 323° |
| 2026-05-06 23:18 | -1.32835 | 36.91706 | 5343 ft | 7 kts | 323° |
| 2026-05-06 23:18 | -1.32801 | 36.91680 | 5344 ft | 5 kts | 323° |
| 2026-05-06 23:18 | -1.32773 | 36.91663 | 5348 ft | 6 kts | 337° |
| 2026-05-06 23:18 | -1.32722 | 36.91682 | 5344 ft | 11 kts | 46° |
| 2026-05-06 23:19 | -1.32640 | 36.91791 | 5343 ft | 33 kts | 53° |
| 2026-05-06 23:19 | -1.32399 | 36.92126 | 5334 ft | 85 kts | 54° |
| 2026-05-06 23:19 | -1.31956 | 36.92738 | 5315 ft | 132 kts | 54° |
| 2026-05-06 23:19 | -1.31326 | 36.93605 | 5307 ft | 175 kts | 54° |
| 2026-05-06 23:20 | -1.30578 | 36.94655 | 5712 ft | 189 kts | 56° |
| 2026-05-06 23:20 | -1.29842 | 36.95714 | 6649 ft | 182 kts | 59° |
| 2026-05-06 23:20 | -1.29529 | 36.96887 | 7307 ft | 173 kts | 97° |
| 2026-05-06 23:20 | -1.30180 | 36.97879 | 7565 ft | 184 kts | 152° |
| 2026-05-06 23:21 | -1.31469 | 36.98067 | 7877 ft | 195 kts | 183° |
| 2026-05-06 23:21 | -1.32806 | 36.97709 | 8255 ft | 204 kts | 203° |
| 2026-05-06 23:21 | -1.33916 | 36.96804 | 8600 ft | 215 kts | 237° |
| 2026-05-06 23:21 | -1.34531 | 36.95386 | 8806 ft | 232 kts | 252° |
| 2026-05-06 23:22 | -1.35021 | 36.93785 | 8985 ft | 250 kts | 253° |
| 2026-05-06 23:22 | -1.35548 | 36.92053 | 9159 ft | 270 kts | 252° |
| 2026-05-06 23:22 | -1.36135 | 36.90210 | 9417 ft | 286 kts | 251° |
| 2026-05-06 23:22 | -1.36769 | 36.88284 | 9812 ft | 296 kts | 251° |
| 2026-05-06 23:23 | -1.37421 | 36.86307 | 10318 ft | 302 kts | 253° |
| 2026-05-06 23:23 | -1.37729 | 36.84201 | 10556 ft | 315 kts | 275° |
| 2026-05-06 23:23 | -1.37198 | 36.82034 | 10779 ft | 329 kts | 290° |
| 2026-05-06 23:23 | -1.36327 | 36.79865 | 11013 ft | 343 kts | 293° |
| 2026-05-06 23:24 | -1.35380 | 36.77624 | 11225 ft | 357 kts | 293° |
| 2026-05-06 23:24 | -1.34402 | 36.75293 | 11435 ft | 370 kts | 293° |
| 2026-05-06 23:24 | -1.33400 | 36.72879 | 11681 ft | 380 kts | 292° |
| 2026-05-06 23:24 | -1.32730 | 36.71252 | 11925 ft | 384 kts | 293° |
| 2026-05-06 23:25 | -1.31374 | 36.67947 | 12453 ft | 391 kts | 292° |
| 2026-05-06 23:25 | -1.30678 | 36.66247 | 12781 ft | 392 kts | 293° |
| 2026-05-06 23:25 | -1.29306 | 36.62887 | 13391 ft | 396 kts | 293° |
| 2026-05-06 23:25 | -1.28263 | 36.60335 | 13836 ft | 398 kts | 293° |
| 2026-05-06 23:26 | -1.27213 | 36.57763 | 14237 ft | 401 kts | 293° |
| 2026-05-06 23:26 | -1.26156 | 36.55175 | 14629 ft | 404 kts | 293° |
| 2026-05-06 23:26 | -1.25439 | 36.53419 | 14883 ft | 405 kts | 292° |
| 2026-05-06 23:26 | -1.24385 | 36.50836 | 15284 ft | 407 kts | 292° |
| 2026-05-06 23:27 | -1.23312 | 36.48208 | 15696 ft | 408 kts | 293° |
| 2026-05-06 23:27 | -1.22236 | 36.45573 | 16109 ft | 410 kts | 293° |
| 2026-05-06 23:27 | -1.21153 | 36.42922 | 16466 ft | 413 kts | 293° |
| 2026-05-06 23:27 | -1.20066 | 36.40258 | 16824 ft | 416 kts | 293° |
| 2026-05-06 23:28 | -1.18970 | 36.37574 | 17185 ft | 418 kts | 293° |
| 2026-05-06 23:28 | -1.17869 | 36.34879 | 17524 ft | 420 kts | 293° |
| 2026-05-06 23:28 | -1.16761 | 36.32165 | 17882 ft | 423 kts | 293° |
| 2026-05-06 23:28 | -1.15647 | 36.29438 | 18223 ft | 425 kts | 293° |
| 2026-05-06 23:29 | -1.14524 | 36.26690 | 18542 ft | 428 kts | 293° |
| 2026-05-06 23:29 | -1.13398 | 36.23932 | 18803 ft | 430 kts | 293° |
| 2026-05-06 23:29 | -1.12266 | 36.21159 | 19060 ft | 433 kts | 293° |
| 2026-05-06 23:29 | -1.11127 | 36.18370 | 19350 ft | 434 kts | 293° |
| 2026-05-06 23:30 | -1.09983 | 36.15569 | 19642 ft | 436 kts | 293° |
| 2026-05-06 23:30 | -1.08817 | 36.12762 | 19921 ft | 438 kts | 294° |
| 2026-05-06 23:30 | -1.07623 | 36.09953 | 20193 ft | 440 kts | 294° |
| 2026-05-06 23:30 | -1.06415 | 36.07142 | 20460 ft | 441 kts | 294° |
| 2026-05-06 23:31 | -1.05198 | 36.04321 | 20728 ft | 443 kts | 294° |
| 2026-05-06 23:31 | -1.03975 | 36.01488 | 20989 ft | 445 kts | 294° |
| 2026-05-06 23:31 | -1.02752 | 35.98647 | 21250 ft | 447 kts | 294° |
| 2026-05-06 23:31 | -1.01522 | 35.95787 | 21498 ft | 448 kts | 294° |
| 2026-05-06 23:32 | -1.00291 | 35.92919 | 21755 ft | 450 kts | 294° |
| 2026-05-06 23:32 | -0.99071 | 35.90077 | 22033 ft | 452 kts | 294° |
| 2026-05-06 23:32 | -0.97833 | 35.87188 | 22286 ft | 454 kts | 294° |
| 2026-05-06 23:32 | -0.96587 | 35.84283 | 22527 ft | 455 kts | 294° |
| 2026-05-06 23:33 | -0.95338 | 35.81369 | 22783 ft | 457 kts | 294° |
| 2026-05-06 23:33 | -0.94082 | 35.78439 | 23044 ft | 459 kts | 294° |
| 2026-05-06 23:33 | -0.92823 | 35.75502 | 23291 ft | 461 kts | 294° |
| 2026-05-06 23:33 | -0.91556 | 35.72548 | 23471 ft | 464 kts | 294° |
| 2026-05-06 23:34 | -0.90280 | 35.69575 | 23713 ft | 466 kts | 294° |
| 2026-05-06 23:34 | -0.89004 | 35.66598 | 23930 ft | 467 kts | 294° |
| 2026-05-06 23:34 | -0.87721 | 35.63607 | 24129 ft | 469 kts | 294° |
| 2026-05-06 23:34 | -0.86435 | 35.60609 | 24345 ft | 470 kts | 294° |
| 2026-05-06 23:35 | -0.85147 | 35.57605 | 24569 ft | 471 kts | 294° |
| 2026-05-06 23:35 | -0.83853 | 35.54589 | 24762 ft | 473 kts | 294° |
| 2026-05-06 23:35 | -0.82557 | 35.51568 | 24986 ft | 474 kts | 294° |
| 2026-05-06 23:35 | -0.81257 | 35.48537 | 25184 ft | 475 kts | 294° |
| 2026-05-06 23:36 | -0.79952 | 35.45497 | 25387 ft | 477 kts | 294° |
| 2026-05-06 23:36 | -0.78643 | 35.42445 | 25591 ft | 478 kts | 294° |
| 2026-05-06 23:36 | -0.77332 | 35.39388 | 25799 ft | 480 kts | 294° |
| 2026-05-06 23:36 | -0.76014 | 35.36318 | 26007 ft | 481 kts | 294° |
| 2026-05-06 23:37 | -0.74694 | 35.33242 | 26192 ft | 483 kts | 294° |
| 2026-05-06 23:37 | -0.73370 | 35.30154 | 26398 ft | 484 kts | 294° |
| 2026-05-06 23:37 | -0.72040 | 35.27055 | 26601 ft | 486 kts | 294° |
| 2026-05-06 23:37 | -0.70726 | 35.23991 | 26802 ft | 487 kts | 294° |
| 2026-05-06 23:38 | -0.69389 | 35.20876 | 26965 ft | 489 kts | 294° |
| 2026-05-06 23:38 | -0.68046 | 35.17745 | 27167 ft | 491 kts | 294° |
| 2026-05-06 23:38 | -0.66700 | 35.14608 | 27372 ft | 492 kts | 293° |
| 2026-05-06 23:38 | -0.65349 | 35.11461 | 27561 ft | 494 kts | 293° |
| 2026-05-06 23:39 | -0.63994 | 35.08303 | 27774 ft | 495 kts | 293° |
| 2026-05-06 23:39 | -0.62634 | 35.05133 | 27957 ft | 497 kts | 293° |
| 2026-05-06 23:39 | -0.61275 | 35.01965 | 28165 ft | 497 kts | 294° |
| 2026-05-06 23:39 | -0.59910 | 34.98784 | 28364 ft | 498 kts | 293° |
| 2026-05-06 23:40 | -0.58542 | 34.95597 | 28563 ft | 499 kts | 293° |
| 2026-05-06 23:40 | -0.57174 | 34.92410 | 28746 ft | 500 kts | 293° |
| 2026-05-06 23:40 | -0.55803 | 34.89214 | 29015 ft | 499 kts | 293° |
| 2026-05-06 23:40 | -0.54437 | 34.86031 | 29331 ft | 498 kts | 293° |
| 2026-05-06 23:41 | -0.53072 | 34.82850 | 29598 ft | 497 kts | 293° |
| 2026-05-06 23:41 | -0.51711 | 34.79679 | 29878 ft | 497 kts | 293° |
| 2026-05-06 23:41 | -0.50351 | 34.76509 | 30134 ft | 496 kts | 293° |
| 2026-05-06 23:41 | -0.48993 | 34.73346 | 30297 ft | 496 kts | 293° |
| 2026-05-06 23:42 | -0.47638 | 34.70189 | 30616 ft | 493 kts | 293° |
| 2026-05-06 23:42 | -0.46288 | 34.67043 | 30855 ft | 492 kts | 293° |
| 2026-05-06 23:42 | -0.44942 | 34.63907 | 31080 ft | 491 kts | 293° |
| 2026-05-06 23:42 | -0.43596 | 34.60771 | 31250 ft | 491 kts | 293° |
| 2026-05-06 23:43 | -0.42249 | 34.57634 | 31484 ft | 491 kts | 293° |
| 2026-05-06 23:43 | -0.40923 | 34.54545 | 31719 ft | 490 kts | 293° |
| 2026-05-06 23:43 | -0.39581 | 34.51419 | 31897 ft | 490 kts | 293° |
| 2026-05-06 23:43 | -0.38240 | 34.48288 | 32071 ft | 490 kts | 293° |
| 2026-05-06 23:44 | -0.36905 | 34.45149 | 32256 ft | 490 kts | 293° |
| 2026-05-06 23:44 | -0.35573 | 34.42004 | 32419 ft | 491 kts | 293° |
| 2026-05-06 23:44 | -0.34245 | 34.38865 | 32628 ft | 491 kts | 293° |
| 2026-05-06 23:44 | -0.32918 | 34.35725 | 32851 ft | 490 kts | 293° |
| 2026-05-06 23:45 | -0.31596 | 34.32598 | 33082 ft | 489 kts | 293° |
| 2026-05-06 23:45 | -0.30272 | 34.29468 | 33261 ft | 489 kts | 293° |
| 2026-05-06 23:45 | -0.28947 | 34.26340 | 33471 ft | 488 kts | 293° |
| 2026-05-06 23:45 | -0.27626 | 34.23219 | 33674 ft | 488 kts | 293° |
| 2026-05-06 23:46 | -0.26306 | 34.20104 | 33896 ft | 486 kts | 293° |
| 2026-05-06 23:46 | -0.24993 | 34.17003 | 34154 ft | 483 kts | 293° |
| 2026-05-06 23:46 | -0.23685 | 34.13916 | 34378 ft | 482 kts | 293° |
| 2026-05-06 23:46 | -0.22394 | 34.10867 | 34516 ft | 482 kts | 293° |
| 2026-05-06 23:47 | -0.21084 | 34.07775 | 34612 ft | 483 kts | 293° |
| 2026-05-06 23:47 | -0.19775 | 34.04686 | 34791 ft | 482 kts | 293° |
| 2026-05-06 23:47 | -0.18473 | 34.01606 | 34995 ft | 480 kts | 292° |
| 2026-05-06 23:47 | -0.17383 | 33.98456 | 35137 ft | 481 kts | 285° |
| 2026-05-06 23:48 | -0.16678 | 33.95191 | 35291 ft | 480 kts | 281° |
| 2026-05-06 23:48 | -0.16116 | 33.91916 | 35534 ft | 477 kts | 279° |
| 2026-05-06 23:48 | -0.15617 | 33.88646 | 35728 ft | 476 kts | 278° |
| 2026-05-06 23:48 | -0.15148 | 33.85369 | 35841 ft | 477 kts | 278° |
| 2026-05-06 23:49 | -0.14689 | 33.82085 | 35904 ft | 478 kts | 278° |
| 2026-05-06 23:49 | -0.13766 | 33.75506 | 35910 ft | 478 kts | 278° |
| 2026-05-06 23:50 | -0.12824 | 33.68928 | 35912 ft | 479 kts | 278° |
| 2026-05-06 23:50 | -0.11397 | 33.59070 | 35905 ft | 477 kts | 278° |
| 2026-05-06 23:51 | -0.10445 | 33.52510 | 35907 ft | 478 kts | 278° |
| 2026-05-06 23:51 | -0.09493 | 33.45939 | 35900 ft | 477 kts | 278° |
| 2026-05-06 23:52 | -0.08551 | 33.39435 | 35900 ft | 477 kts | 278° |
| 2026-05-06 23:52 | -0.07600 | 33.32868 | 35897 ft | 477 kts | 278° |
| 2026-05-06 23:53 | -0.06649 | 33.26309 | 35897 ft | 476 kts | 278° |
| 2026-05-06 23:53 | -0.05700 | 33.19754 | 35898 ft | 478 kts | 278° |
| 2026-05-06 23:54 | -0.04748 | 33.13187 | 35893 ft | 477 kts | 278° |
| 2026-05-06 23:54 | -0.03796 | 33.06612 | 35894 ft | 478 kts | 278° |
| 2026-05-06 23:55 | -0.02842 | 33.00029 | 35894 ft | 479 kts | 278° |
| 2026-05-06 23:55 | -0.01889 | 32.93449 | 35895 ft | 478 kts | 278° |
| 2026-05-06 23:56 | -0.00936 | 32.86869 | 35900 ft | 479 kts | 278° |
| 2026-05-06 23:56 | 0.00019 | 32.80278 | 35900 ft | 480 kts | 278° |
| 2026-05-06 23:57 | 0.00969 | 32.73722 | 35940 ft | 480 kts | 278° |
| 2026-05-06 23:57 | 0.01923 | 32.67130 | 35975 ft | 479 kts | 278° |
| 2026-05-06 23:58 | 0.02879 | 32.60534 | 36009 ft | 479 kts | 278° |
| 2026-05-06 23:58 | 0.03833 | 32.53946 | 36043 ft | 479 kts | 278° |
| 2026-05-06 23:59 | 0.04855 | 32.47380 | 36047 ft | 478 kts | 283° |
| 2026-05-06 23:59 | 0.07228 | 32.41202 | 36048 ft | 478 kts | 300° |
| 2026-05-07 00:00 | 0.10795 | 32.35579 | 36039 ft | 479 kts | 303° |
| 2026-05-07 00:00 | 0.13938 | 32.31010 | 36015 ft | 479 kts | 304° |
| 2026-05-07 00:01 | 0.18377 | 32.24610 | 35982 ft | 479 kts | 304° |
| 2026-05-07 00:01 | 0.22128 | 32.19147 | 35953 ft | 480 kts | 304° |
| 2026-05-07 00:02 | 0.25886 | 32.13641 | 35944 ft | 480 kts | 304° |
| 2026-05-07 00:02 | 0.29640 | 32.08134 | 35944 ft | 480 kts | 304° |
| 2026-05-07 00:03 | 0.33398 | 32.02620 | 35949 ft | 479 kts | 304° |
| 2026-05-07 00:03 | 0.37142 | 31.97112 | 35946 ft | 479 kts | 303° |
| 2026-05-07 00:04 | 0.40879 | 31.91606 | 35950 ft | 479 kts | 303° |
| 2026-05-07 00:04 | 0.44618 | 31.86101 | 35950 ft | 479 kts | 303° |
| 2026-05-07 00:05 | 0.48356 | 31.80595 | 35949 ft | 479 kts | 303° |
| 2026-05-07 00:05 | 0.52097 | 31.75089 | 35949 ft | 478 kts | 303° |
| 2026-05-07 00:06 | 0.55827 | 31.69597 | 35952 ft | 478 kts | 303° |
| 2026-05-07 00:06 | 0.59561 | 31.64099 | 35952 ft | 478 kts | 303° |
| 2026-05-07 00:07 | 0.63270 | 31.58638 | 35952 ft | 478 kts | 303° |
| 2026-05-07 00:07 | 0.67004 | 31.53143 | 35953 ft | 478 kts | 303° |
| 2026-05-07 00:08 | 0.70748 | 31.47658 | 35952 ft | 477 kts | 303° |
| 2026-05-07 00:08 | 0.74492 | 31.42179 | 35952 ft | 477 kts | 303° |
| 2026-05-07 00:09 | 0.78236 | 31.36700 | 35958 ft | 477 kts | 303° |
| 2026-05-07 00:09 | 0.81977 | 31.31221 | 35952 ft | 477 kts | 303° |
| 2026-05-07 00:10 | 0.85718 | 31.25743 | 35952 ft | 477 kts | 303° |
| 2026-05-07 00:10 | 0.89461 | 31.20261 | 35952 ft | 478 kts | 303° |
| 2026-05-07 00:11 | 0.93207 | 31.14775 | 35941 ft | 478 kts | 303° |
| 2026-05-07 00:11 | 0.96953 | 31.09289 | 35941 ft | 478 kts | 303° |
| 2026-05-07 00:12 | 1.00697 | 31.03804 | 35941 ft | 477 kts | 303° |
| 2026-05-07 00:12 | 1.04434 | 30.98330 | 35941 ft | 477 kts | 303° |
| 2026-05-07 00:13 | 1.08171 | 30.92856 | 35914 ft | 477 kts | 303° |
| 2026-05-07 00:13 | 1.11882 | 30.87419 | 35914 ft | 476 kts | 303° |
| 2026-05-07 00:14 | 1.15618 | 30.81946 | 35912 ft | 476 kts | 303° |
| 2026-05-07 00:14 | 1.19352 | 30.76476 | 35895 ft | 476 kts | 303° |
| 2026-05-07 00:15 | 1.23086 | 30.71004 | 35883 ft | 476 kts | 303° |
| 2026-05-07 00:15 | 1.26823 | 30.65533 | 35884 ft | 476 kts | 304° |
| 2026-05-07 00:16 | 1.29985 | 30.60976 | 35873 ft | 476 kts | 304° |
| 2026-05-07 00:16 | 1.33788 | 30.55552 | 35870 ft | 476 kts | 304° |
| 2026-05-07 00:17 | 1.37587 | 30.50135 | 35870 ft | 476 kts | 304° |
| 2026-05-07 00:17 | 1.41356 | 30.44753 | 35872 ft | 476 kts | 304° |
| 2026-05-07 00:18 | 1.45147 | 30.39333 | 35901 ft | 476 kts | 304° |
| 2026-05-07 00:18 | 1.48935 | 30.33915 | 35903 ft | 476 kts | 304° |
| 2026-05-07 00:19 | 1.52726 | 30.28494 | 35900 ft | 476 kts | 304° |
| 2026-05-07 00:19 | 1.56403 | 30.22997 | 35910 ft | 475 kts | 297° |
| 2026-05-07 00:20 | 1.59359 | 30.17099 | 35925 ft | 475 kts | 295° |
| 2026-05-07 00:20 | 1.62156 | 30.11123 | 35927 ft | 475 kts | 294° |
| 2026-05-07 00:21 | 1.64922 | 30.05133 | 35932 ft | 475 kts | 294° |
| 2026-05-07 00:21 | 1.67698 | 29.99146 | 35931 ft | 474 kts | 294° |
| 2026-05-07 00:22 | 1.70462 | 29.93208 | 35926 ft | 474 kts | 294° |
| 2026-05-07 00:22 | 1.73245 | 29.87238 | 35929 ft | 474 kts | 294° |
| 2026-05-07 00:23 | 1.76030 | 29.81263 | 35924 ft | 474 kts | 294° |
| 2026-05-07 00:23 | 1.78869 | 29.75308 | 35928 ft | 475 kts | 295° |
| 2026-05-07 00:24 | 1.81791 | 29.69382 | 35921 ft | 475 kts | 295° |
| 2026-05-07 00:24 | 1.84725 | 29.63455 | 35923 ft | 475 kts | 295° |
| 2026-05-07 00:25 | 1.87647 | 29.57528 | 35922 ft | 475 kts | 295° |
| 2026-05-07 00:25 | 1.90564 | 29.51596 | 35921 ft | 476 kts | 295° |
| 2026-05-07 00:26 | 1.93472 | 29.45617 | 35917 ft | 479 kts | 294° |
| 2026-05-07 00:26 | 1.96321 | 29.39594 | 35921 ft | 479 kts | 294° |
| 2026-05-07 00:27 | 1.99156 | 29.33567 | 35918 ft | 479 kts | 294° |
| 2026-05-07 00:27 | 2.01995 | 29.27548 | 35919 ft | 478 kts | 294° |
| 2026-05-07 00:28 | 2.04813 | 29.21584 | 35917 ft | 478 kts | 294° |
| 2026-05-07 00:28 | 2.07657 | 29.15568 | 35917 ft | 479 kts | 294° |
| 2026-05-07 00:29 | 2.10506 | 29.09541 | 35918 ft | 479 kts | 294° |
| 2026-05-07 00:30 | 2.16200 | 28.97491 | 35913 ft | 479 kts | 294° |
| 2026-05-07 00:30 | 2.19046 | 28.91469 | 35914 ft | 479 kts | 294° |
| 2026-05-07 00:31 | 2.21895 | 28.85438 | 35914 ft | 480 kts | 294° |
| 2026-05-07 00:31 | 2.24742 | 28.79409 | 35913 ft | 480 kts | 294° |
| 2026-05-07 00:32 | 2.27571 | 28.73420 | 35912 ft | 480 kts | 294° |
| 2026-05-07 00:32 | 2.30437 | 28.67352 | 35909 ft | 480 kts | 294° |
| 2026-05-07 00:33 | 2.33283 | 28.61324 | 35905 ft | 479 kts | 294° |
| 2026-05-07 00:33 | 2.36121 | 28.55312 | 35906 ft | 478 kts | 294° |
| 2026-05-07 00:34 | 2.38957 | 28.49304 | 35903 ft | 477 kts | 294° |
| 2026-05-07 00:34 | 2.41769 | 28.43346 | 35904 ft | 477 kts | 294° |
| 2026-05-07 00:35 | 2.44601 | 28.37345 | 35901 ft | 477 kts | 294° |
| 2026-05-07 00:35 | 2.47431 | 28.31346 | 35898 ft | 477 kts | 295° |
| 2026-05-07 00:36 | 2.50264 | 28.25343 | 35904 ft | 477 kts | 295° |
| 2026-05-07 00:36 | 2.53098 | 28.19353 | 35903 ft | 477 kts | 295° |
| 2026-05-07 00:37 | 2.55954 | 28.13369 | 35904 ft | 477 kts | 295° |
| 2026-05-07 00:37 | 2.58813 | 28.07390 | 35902 ft | 477 kts | 295° |
| 2026-05-07 00:38 | 2.61674 | 28.01398 | 35903 ft | 478 kts | 295° |
| 2026-05-07 00:38 | 2.64538 | 27.95397 | 35903 ft | 478 kts | 295° |
| 2026-05-07 00:39 | 2.67402 | 27.89394 | 35903 ft | 478 kts | 295° |
| 2026-05-07 00:39 | 2.70267 | 27.83389 | 35907 ft | 478 kts | 295° |
| 2026-05-07 00:40 | 2.73128 | 27.77391 | 35905 ft | 478 kts | 295° |
| 2026-05-07 00:40 | 2.75992 | 27.71386 | 35906 ft | 478 kts | 295° |
| 2026-05-07 00:41 | 2.78833 | 27.65427 | 35906 ft | 478 kts | 295° |
| 2026-05-07 00:41 | 2.81949 | 27.59566 | 35907 ft | 478 kts | 303° |
| 2026-05-07 00:42 | 2.85805 | 27.54139 | 35900 ft | 479 kts | 306° |
| 2026-05-07 00:42 | 2.89805 | 27.48800 | 35900 ft | 479 kts | 306° |
| 2026-05-07 00:43 | 2.93828 | 27.43472 | 35901 ft | 481 kts | 306° |
| 2026-05-07 00:43 | 2.97862 | 27.38105 | 35900 ft | 483 kts | 306° |
| 2026-05-07 00:44 | 3.01892 | 27.32726 | 35897 ft | 483 kts | 306° |
| 2026-05-07 00:44 | 3.05921 | 27.27341 | 35897 ft | 483 kts | 306° |
| 2026-05-07 00:45 | 3.09945 | 27.21962 | 35897 ft | 483 kts | 306° |
| 2026-05-07 00:45 | 3.13942 | 27.16620 | 35889 ft | 483 kts | 306° |
| 2026-05-07 00:46 | 3.17971 | 27.11234 | 35895 ft | 484 kts | 306° |
| 2026-05-07 00:46 | 3.22003 | 27.05844 | 35894 ft | 484 kts | 306° |
| 2026-05-07 00:47 | 3.26037 | 27.00450 | 35895 ft | 484 kts | 306° |
| 2026-05-07 00:47 | 3.30068 | 26.95059 | 35898 ft | 484 kts | 306° |
| 2026-05-07 00:48 | 3.34096 | 26.89671 | 35897 ft | 484 kts | 306° |
| 2026-05-07 00:48 | 3.38130 | 26.84275 | 35896 ft | 484 kts | 306° |
| 2026-05-07 00:49 | 3.42171 | 26.78868 | 35898 ft | 485 kts | 306° |
| 2026-05-07 00:49 | 3.46211 | 26.73463 | 35898 ft | 485 kts | 306° |
| 2026-05-07 00:50 | 3.50251 | 26.68056 | 35898 ft | 485 kts | 306° |
| 2026-05-07 00:50 | 3.54291 | 26.62647 | 35898 ft | 485 kts | 306° |
| 2026-05-07 00:51 | 3.58330 | 26.57240 | 35900 ft | 485 kts | 306° |
| 2026-05-07 00:51 | 3.62376 | 26.51822 | 35901 ft | 487 kts | 306° |
| 2026-05-07 00:52 | 3.66437 | 26.46383 | 35900 ft | 488 kts | 306° |
| 2026-05-07 00:52 | 3.70504 | 26.40936 | 35895 ft | 488 kts | 306° |
| 2026-05-07 00:53 | 3.74565 | 26.35495 | 35900 ft | 488 kts | 306° |
| 2026-05-07 00:53 | 3.78601 | 26.30088 | 35900 ft | 489 kts | 306° |
| 2026-05-07 00:54 | 3.82681 | 26.24619 | 35901 ft | 491 kts | 306° |
| 2026-05-07 00:54 | 3.86770 | 26.19138 | 35898 ft | 491 kts | 306° |
| 2026-05-07 00:55 | 3.90854 | 26.13662 | 35895 ft | 491 kts | 306° |
| 2026-05-07 00:55 | 3.94939 | 26.08185 | 35896 ft | 491 kts | 306° |
| 2026-05-07 00:56 | 3.99026 | 26.02704 | 35893 ft | 491 kts | 306° |
| 2026-05-07 00:56 | 4.03109 | 25.97227 | 35889 ft | 491 kts | 306° |
| 2026-05-07 00:57 | 4.07198 | 25.91741 | 35890 ft | 491 kts | 306° |
| 2026-05-07 00:57 | 4.11287 | 25.86253 | 35884 ft | 492 kts | 306° |
| 2026-05-07 00:58 | 4.15372 | 25.80771 | 35878 ft | 490 kts | 306° |
| 2026-05-07 00:58 | 4.19436 | 25.75315 | 35876 ft | 488 kts | 306° |
| 2026-05-07 00:59 | 4.25502 | 25.67169 | 35876 ft | 488 kts | 306° |
| 2026-05-07 01:00 | 4.29562 | 25.61716 | 35869 ft | 488 kts | 306° |
| 2026-05-07 01:00 | 4.33627 | 25.56257 | 35870 ft | 489 kts | 306° |
| 2026-05-07 01:01 | 4.37689 | 25.50797 | 35868 ft | 489 kts | 306° |
| 2026-05-07 01:01 | 4.41750 | 25.45339 | 35867 ft | 489 kts | 306° |
| 2026-05-07 01:02 | 4.45813 | 25.39877 | 35868 ft | 489 kts | 306° |
| 2026-05-07 01:02 | 4.49874 | 25.34417 | 35868 ft | 487 kts | 306° |
| 2026-05-07 01:03 | 4.53909 | 25.28992 | 35867 ft | 484 kts | 305° |
| 2026-05-07 01:03 | 4.57928 | 25.23586 | 35866 ft | 484 kts | 305° |
| 2026-05-07 01:04 | 4.61950 | 25.18174 | 35868 ft | 484 kts | 305° |
| 2026-05-07 01:04 | 4.65969 | 25.12766 | 35871 ft | 484 kts | 305° |
| 2026-05-07 01:05 | 4.69310 | 25.08269 | 35867 ft | 484 kts | 305° |
| 2026-05-07 01:05 | 4.73332 | 25.02854 | 35865 ft | 484 kts | 305° |
| 2026-05-07 01:06 | 4.77998 | 24.96572 | 35868 ft | 481 kts | 305° |
| 2026-05-07 01:06 | 4.81342 | 24.92069 | 35868 ft | 480 kts | 305° |
| 2026-05-07 01:07 | 4.85331 | 24.86696 | 35869 ft | 480 kts | 305° |
| 2026-05-07 01:07 | 4.89307 | 24.81338 | 35869 ft | 478 kts | 305° |
| 2026-05-07 01:08 | 4.93251 | 24.76022 | 35874 ft | 478 kts | 305° |
| 2026-05-07 01:08 | 4.97219 | 24.70668 | 35873 ft | 478 kts | 305° |
| 2026-05-07 01:09 | 5.01185 | 24.65312 | 35874 ft | 478 kts | 305° |
| 2026-05-07 01:09 | 5.05154 | 24.59952 | 35874 ft | 478 kts | 305° |
| 2026-05-07 01:10 | 5.09120 | 24.54593 | 35872 ft | 478 kts | 305° |
| 2026-05-07 01:10 | 5.13086 | 24.49235 | 35875 ft | 478 kts | 305° |
| 2026-05-07 01:11 | 5.17052 | 24.43877 | 35876 ft | 478 kts | 305° |
| 2026-05-07 01:11 | 5.21021 | 24.38518 | 35872 ft | 478 kts | 305° |
| 2026-05-07 01:12 | 5.24965 | 24.33191 | 35875 ft | 479 kts | 305° |
| 2026-05-07 01:12 | 5.28939 | 24.27824 | 35878 ft | 479 kts | 305° |
| 2026-05-07 01:13 | 5.32913 | 24.22455 | 35873 ft | 479 kts | 305° |
| 2026-05-07 01:13 | 5.36888 | 24.17084 | 35874 ft | 479 kts | 305° |
| 2026-05-07 01:14 | 5.40860 | 24.11714 | 35869 ft | 479 kts | 305° |
| 2026-05-07 01:14 | 5.44833 | 24.06342 | 35869 ft | 479 kts | 305° |
| 2026-05-07 01:15 | 5.48805 | 24.00970 | 35871 ft | 480 kts | 305° |
| 2026-05-07 01:15 | 5.52782 | 23.95591 | 35872 ft | 480 kts | 305° |
| 2026-05-07 01:16 | 5.56756 | 23.90214 | 35875 ft | 480 kts | 305° |
| 2026-05-07 01:16 | 5.60730 | 23.84834 | 35871 ft | 479 kts | 305° |
| 2026-05-07 01:17 | 5.64911 | 23.79687 | 35873 ft | 480 kts | 315° |
| 2026-05-07 01:17 | 5.70381 | 23.75852 | 35873 ft | 484 kts | 334° |
| 2026-05-07 01:18 | 5.76628 | 23.73305 | 35876 ft | 485 kts | 338° |
| 2026-05-07 01:18 | 5.82985 | 23.71020 | 35874 ft | 485 kts | 339° |
| 2026-05-07 01:19 | 5.89347 | 23.68752 | 35873 ft | 485 kts | 339° |
| 2026-05-07 01:19 | 5.95702 | 23.66448 | 35873 ft | 486 kts | 338° |
| 2026-05-07 01:20 | 6.02056 | 23.64121 | 35873 ft | 486 kts | 338° |
| 2026-05-07 01:20 | 6.08411 | 23.61788 | 35870 ft | 486 kts | 338° |
| 2026-05-07 01:21 | 6.14766 | 23.59456 | 35869 ft | 486 kts | 338° |
| 2026-05-07 01:21 | 6.21120 | 23.57124 | 35868 ft | 486 kts | 338° |
| 2026-05-07 01:22 | 6.27435 | 23.54807 | 35873 ft | 486 kts | 338° |
| 2026-05-07 01:22 | 6.33792 | 23.52474 | 35871 ft | 487 kts | 338° |
| 2026-05-07 01:23 | 6.40154 | 23.50138 | 35875 ft | 487 kts | 338° |
| 2026-05-07 01:23 | 6.46517 | 23.47801 | 35873 ft | 487 kts | 338° |
| 2026-05-07 01:24 | 6.52875 | 23.45466 | 35869 ft | 487 kts | 338° |
| 2026-05-07 01:24 | 6.59236 | 23.43129 | 35876 ft | 487 kts | 338° |
| 2026-05-07 01:25 | 6.65593 | 23.40792 | 35875 ft | 486 kts | 338° |
| 2026-05-07 01:25 | 6.71946 | 23.38456 | 35878 ft | 486 kts | 338° |
| 2026-05-07 01:26 | 6.78302 | 23.36119 | 35874 ft | 486 kts | 338° |
| 2026-05-07 01:26 | 6.84654 | 23.33782 | 35874 ft | 486 kts | 338° |
| 2026-05-07 01:27 | 6.91010 | 23.31444 | 35880 ft | 486 kts | 338° |
| 2026-05-07 01:27 | 6.97363 | 23.29105 | 35882 ft | 486 kts | 338° |
| 2026-05-07 01:28 | 7.03723 | 23.26764 | 35876 ft | 486 kts | 338° |
| 2026-05-07 01:28 | 7.10083 | 23.24422 | 35876 ft | 487 kts | 338° |
| 2026-05-07 01:29 | 7.16440 | 23.22080 | 35878 ft | 487 kts | 338° |
| 2026-05-07 01:29 | 7.22759 | 23.19751 | 35876 ft | 487 kts | 338° |
| 2026-05-07 01:30 | 7.29121 | 23.17406 | 35877 ft | 487 kts | 338° |
| 2026-05-07 01:30 | 7.35476 | 23.15063 | 35880 ft | 487 kts | 338° |
| 2026-05-07 01:31 | 7.41828 | 23.12721 | 35874 ft | 486 kts | 338° |
| 2026-05-07 01:31 | 7.48181 | 23.10377 | 35876 ft | 486 kts | 338° |
| 2026-05-07 01:32 | 7.54529 | 23.08034 | 35875 ft | 486 kts | 338° |
| 2026-05-07 01:32 | 7.60871 | 23.05692 | 35874 ft | 486 kts | 338° |
| 2026-05-07 01:33 | 7.67218 | 23.03348 | 35876 ft | 486 kts | 338° |
| 2026-05-07 01:33 | 7.73561 | 23.01005 | 35873 ft | 485 kts | 338° |
| 2026-05-07 01:34 | 7.79904 | 22.98661 | 35876 ft | 485 kts | 338° |
| 2026-05-07 01:34 | 7.86250 | 22.96315 | 35875 ft | 485 kts | 338° |
| 2026-05-07 01:35 | 7.92592 | 22.93970 | 35876 ft | 485 kts | 338° |
| 2026-05-07 01:35 | 7.98935 | 22.91624 | 35875 ft | 485 kts | 337° |
| 2026-05-07 01:36 | 8.05275 | 22.89279 | 35881 ft | 485 kts | 337° |
| 2026-05-07 01:36 | 8.11575 | 22.86947 | 35881 ft | 485 kts | 337° |
| 2026-05-07 01:37 | 8.17497 | 22.83817 | 35879 ft | 478 kts | 320° |
| 2026-05-07 01:37 | 8.22641 | 22.79583 | 35881 ft | 477 kts | 316° |
| 2026-05-07 01:38 | 8.27615 | 22.75146 | 35881 ft | 477 kts | 315° |
| 2026-05-07 01:38 | 8.32561 | 22.70686 | 35881 ft | 477 kts | 315° |
| 2026-05-07 01:39 | 8.37523 | 22.66242 | 35884 ft | 477 kts | 316° |
| 2026-05-07 01:39 | 8.42495 | 22.61811 | 35878 ft | 477 kts | 316° |
| 2026-05-07 01:40 | 8.47470 | 22.57383 | 35878 ft | 476 kts | 316° |
| 2026-05-07 01:40 | 8.52438 | 22.52959 | 35879 ft | 476 kts | 316° |
| 2026-05-07 01:41 | 8.57410 | 22.48528 | 35871 ft | 476 kts | 316° |
| 2026-05-07 01:41 | 8.62379 | 22.44098 | 35862 ft | 476 kts | 316° |
| 2026-05-07 01:42 | 8.67340 | 22.39674 | 35863 ft | 475 kts | 316° |
| 2026-05-07 01:42 | 8.72291 | 22.35257 | 35853 ft | 475 kts | 316° |
| 2026-05-07 01:43 | 8.77215 | 22.30861 | 35859 ft | 475 kts | 316° |
| 2026-05-07 01:43 | 8.82155 | 22.26450 | 35853 ft | 473 kts | 316° |
| 2026-05-07 01:44 | 8.87079 | 22.22053 | 35842 ft | 472 kts | 316° |
| 2026-05-07 01:44 | 8.92003 | 22.17653 | 35843 ft | 472 kts | 316° |
| 2026-05-07 01:45 | 8.96929 | 22.13251 | 35844 ft | 472 kts | 316° |
| 2026-05-07 01:45 | 9.01846 | 22.08853 | 35835 ft | 471 kts | 316° |
| 2026-05-07 01:46 | 9.06749 | 22.04467 | 35836 ft | 470 kts | 316° |
| 2026-05-07 01:46 | 9.11654 | 22.00078 | 35834 ft | 470 kts | 316° |
| 2026-05-07 01:47 | 9.16559 | 21.95687 | 35832 ft | 471 kts | 316° |
| 2026-05-07 01:47 | 9.21428 | 21.91326 | 35832 ft | 471 kts | 316° |
| 2026-05-07 01:48 | 9.26332 | 21.86933 | 35830 ft | 471 kts | 316° |
| 2026-05-07 01:48 | 9.31235 | 21.82539 | 35824 ft | 471 kts | 316° |
| 2026-05-07 01:49 | 9.36136 | 21.78144 | 35819 ft | 471 kts | 317° |
| 2026-05-07 01:49 | 9.41047 | 21.73738 | 35823 ft | 472 kts | 317° |
| 2026-05-07 01:50 | 9.45971 | 21.69321 | 35824 ft | 473 kts | 317° |
| 2026-05-07 01:50 | 9.50889 | 21.64907 | 35831 ft | 473 kts | 317° |
| 2026-05-07 01:51 | 9.55838 | 21.60512 | 35822 ft | 473 kts | 318° |
| 2026-05-07 01:51 | 9.60805 | 21.56196 | 35821 ft | 473 kts | 318° |
| 2026-05-07 01:52 | 9.65810 | 21.51857 | 35815 ft | 473 kts | 318° |
| 2026-05-07 01:52 | 9.70812 | 21.47510 | 35816 ft | 473 kts | 318° |
| 2026-05-07 01:53 | 9.75807 | 21.43161 | 35822 ft | 473 kts | 318° |
| 2026-05-07 01:53 | 9.80803 | 21.38807 | 35815 ft | 473 kts | 318° |
| 2026-05-07 01:54 | 9.85797 | 21.34453 | 35814 ft | 473 kts | 318° |
| 2026-05-07 01:54 | 9.90787 | 21.30101 | 35815 ft | 472 kts | 318° |
| 2026-05-07 01:55 | 9.95765 | 21.25758 | 35812 ft | 472 kts | 318° |
| 2026-05-07 01:55 | 10.00743 | 21.21413 | 35812 ft | 472 kts | 318° |
| 2026-05-07 01:56 | 10.05719 | 21.17068 | 35814 ft | 472 kts | 318° |
| 2026-05-07 01:56 | 10.09854 | 21.13456 | 35812 ft | 472 kts | 318° |
| 2026-05-07 01:57 | 10.15618 | 21.08418 | 35810 ft | 468 kts | 319° |
| 2026-05-07 01:57 | 10.19751 | 21.04805 | 35808 ft | 468 kts | 319° |
| 2026-05-07 01:58 | 10.24680 | 21.00494 | 35808 ft | 468 kts | 319° |
| 2026-05-07 01:58 | 10.29615 | 20.96177 | 35811 ft | 468 kts | 319° |
| 2026-05-07 01:59 | 10.34511 | 20.91890 | 35811 ft | 468 kts | 319° |
| 2026-05-07 01:59 | 10.39441 | 20.87573 | 35809 ft | 468 kts | 319° |
| 2026-05-07 02:00 | 10.44370 | 20.83255 | 35808 ft | 468 kts | 319° |
| 2026-05-07 02:00 | 10.49296 | 20.78934 | 35809 ft | 467 kts | 320° |
| 2026-05-07 02:01 | 10.54185 | 20.74647 | 35809 ft | 463 kts | 320° |
| 2026-05-07 02:01 | 10.59055 | 20.70377 | 35808 ft | 462 kts | 320° |
| 2026-05-07 02:02 | 10.63920 | 20.66107 | 35805 ft | 461 kts | 320° |
| 2026-05-07 02:02 | 10.68766 | 20.61853 | 35805 ft | 460 kts | 320° |
| 2026-05-07 02:03 | 10.73608 | 20.57600 | 35801 ft | 460 kts | 320° |
| 2026-05-07 02:03 | 10.78449 | 20.53346 | 35801 ft | 460 kts | 320° |
| 2026-05-07 02:04 | 10.83291 | 20.49089 | 35804 ft | 460 kts | 320° |
| 2026-05-07 02:04 | 10.88126 | 20.44836 | 35805 ft | 459 kts | 321° |
| 2026-05-07 02:05 | 10.92942 | 20.40598 | 35808 ft | 457 kts | 321° |
| 2026-05-07 02:05 | 10.97748 | 20.36367 | 35813 ft | 457 kts | 321° |
| 2026-05-07 02:06 | 11.02516 | 20.32168 | 35812 ft | 456 kts | 321° |
| 2026-05-07 02:06 | 11.07317 | 20.27938 | 35816 ft | 456 kts | 321° |
| 2026-05-07 02:07 | 11.12110 | 20.23713 | 35813 ft | 456 kts | 321° |
| 2026-05-07 02:07 | 11.19301 | 20.17370 | 35810 ft | 456 kts | 321° |
| 2026-05-07 02:08 | 11.24097 | 20.13138 | 35818 ft | 456 kts | 321° |
| 2026-05-07 02:08 | 11.28883 | 20.08911 | 35817 ft | 455 kts | 321° |
| 2026-05-07 02:09 | 11.33658 | 20.04693 | 35824 ft | 454 kts | 321° |
| 2026-05-07 02:09 | 11.38428 | 20.00478 | 35822 ft | 453 kts | 321° |
| 2026-05-07 02:10 | 11.43187 | 19.96270 | 35822 ft | 453 kts | 321° |
| 2026-05-07 02:10 | 11.47945 | 19.92061 | 35816 ft | 453 kts | 321° |
| 2026-05-07 02:11 | 11.52670 | 19.87880 | 35816 ft | 453 kts | 321° |
| 2026-05-07 02:11 | 11.57426 | 19.83669 | 35816 ft | 453 kts | 321° |
| 2026-05-07 02:12 | 11.62180 | 19.79458 | 35810 ft | 453 kts | 321° |
| 2026-05-07 02:12 | 11.66915 | 19.75239 | 35810 ft | 451 kts | 320° |
| 2026-05-07 02:13 | 11.71619 | 19.71012 | 35816 ft | 450 kts | 320° |
| 2026-05-07 02:13 | 11.76314 | 19.66787 | 35816 ft | 449 kts | 320° |
| 2026-05-07 02:14 | 11.81003 | 19.62570 | 35811 ft | 449 kts | 320° |
| 2026-05-07 02:14 | 11.85693 | 19.58352 | 35816 ft | 449 kts | 320° |
| 2026-05-07 02:15 | 11.90385 | 19.54131 | 35819 ft | 449 kts | 320° |
| 2026-05-07 02:15 | 11.95075 | 19.49909 | 35814 ft | 449 kts | 320° |
| 2026-05-07 02:16 | 11.99763 | 19.45687 | 35811 ft | 449 kts | 320° |
| 2026-05-07 02:16 | 12.04444 | 19.41470 | 35813 ft | 448 kts | 320° |
| 2026-05-07 02:17 | 12.09113 | 19.37260 | 35815 ft | 447 kts | 320° |
| 2026-05-07 02:17 | 12.13775 | 19.33055 | 35812 ft | 447 kts | 320° |
| 2026-05-07 02:18 | 12.18436 | 19.28850 | 35817 ft | 447 kts | 320° |
| 2026-05-07 02:18 | 12.23062 | 19.24674 | 35812 ft | 447 kts | 320° |
| 2026-05-07 02:19 | 12.27721 | 19.20465 | 35810 ft | 447 kts | 320° |
| 2026-05-07 02:19 | 12.32381 | 19.16254 | 35813 ft | 447 kts | 320° |
| 2026-05-07 02:20 | 12.37038 | 19.12044 | 35808 ft | 447 kts | 320° |
| 2026-05-07 02:20 | 12.41685 | 19.07840 | 35808 ft | 446 kts | 320° |
| 2026-05-07 02:21 | 12.46327 | 19.03640 | 35812 ft | 445 kts | 320° |
| 2026-05-07 02:21 | 12.50971 | 18.99435 | 35811 ft | 445 kts | 320° |
| 2026-05-07 02:22 | 12.55609 | 18.95233 | 35804 ft | 445 kts | 320° |
| 2026-05-07 02:22 | 12.60248 | 18.91028 | 35806 ft | 445 kts | 320° |
| 2026-05-07 02:23 | 12.64857 | 18.86848 | 35806 ft | 445 kts | 320° |
| 2026-05-07 02:23 | 12.69494 | 18.82641 | 35801 ft | 445 kts | 320° |
| 2026-05-07 02:24 | 12.74130 | 18.78432 | 35802 ft | 445 kts | 320° |
| 2026-05-07 02:24 | 12.78765 | 18.74222 | 35801 ft | 444 kts | 320° |
| 2026-05-07 02:25 | 12.83387 | 18.70022 | 35803 ft | 444 kts | 320° |
| 2026-05-07 02:25 | 12.88004 | 18.65825 | 35803 ft | 443 kts | 320° |
| 2026-05-07 02:26 | 12.92615 | 18.61630 | 35800 ft | 443 kts | 320° |
| 2026-05-07 02:26 | 12.97227 | 18.57433 | 35786 ft | 443 kts | 320° |
| 2026-05-07 02:27 | 13.01843 | 18.53229 | 35803 ft | 443 kts | 320° |
| 2026-05-07 02:27 | 13.06458 | 18.49025 | 35798 ft | 444 kts | 320° |
| 2026-05-07 02:28 | 13.11070 | 18.44821 | 35786 ft | 444 kts | 320° |
| 2026-05-07 02:28 | 13.15682 | 18.40615 | 35800 ft | 443 kts | 320° |
| 2026-05-07 02:29 | 13.20284 | 18.36416 | 35786 ft | 442 kts | 320° |
| 2026-05-07 02:29 | 13.24877 | 18.32223 | 35804 ft | 442 kts | 320° |
| 2026-05-07 02:30 | 13.29437 | 18.28057 | 35801 ft | 442 kts | 320° |
| 2026-05-07 02:30 | 13.34028 | 18.23862 | 35805 ft | 442 kts | 320° |
| 2026-05-07 02:31 | 13.38612 | 18.19670 | 35803 ft | 442 kts | 320° |
| 2026-05-07 02:31 | 13.43202 | 18.15471 | 35785 ft | 442 kts | 320° |
| 2026-05-07 02:32 | 13.47791 | 18.11270 | 35800 ft | 442 kts | 320° |
| 2026-05-07 02:32 | 13.52379 | 18.07068 | 35783 ft | 442 kts | 320° |
| 2026-05-07 02:33 | 13.56965 | 18.02865 | 35804 ft | 441 kts | 320° |
| 2026-05-07 02:33 | 13.61544 | 17.98667 | 35786 ft | 441 kts | 320° |
| 2026-05-07 02:34 | 13.66124 | 17.94465 | 35783 ft | 441 kts | 320° |
| 2026-05-07 02:34 | 13.70700 | 17.90265 | 35800 ft | 441 kts | 320° |
| 2026-05-07 02:35 | 13.75278 | 17.86061 | 35785 ft | 441 kts | 320° |
| 2026-05-07 02:35 | 13.79851 | 17.81859 | 35786 ft | 441 kts | 320° |
| 2026-05-07 02:36 | 13.84424 | 17.77654 | 35798 ft | 441 kts | 320° |
| 2026-05-07 02:36 | 13.88968 | 17.73474 | 35779 ft | 441 kts | 320° |
| 2026-05-07 02:37 | 13.93541 | 17.69265 | 35799 ft | 441 kts | 320° |
| 2026-05-07 02:37 | 13.98117 | 17.65052 | 35786 ft | 441 kts | 320° |
| 2026-05-07 02:38 | 14.02689 | 17.60838 | 35795 ft | 441 kts | 320° |
| 2026-05-07 02:38 | 14.07263 | 17.56621 | 35791 ft | 441 kts | 320° |
| 2026-05-07 02:39 | 14.11836 | 17.52402 | 35782 ft | 441 kts | 320° |
| 2026-05-07 02:39 | 14.16412 | 17.48180 | 35799 ft | 441 kts | 320° |
| 2026-05-07 02:40 | 14.20984 | 17.43957 | 35777 ft | 441 kts | 320° |
| 2026-05-07 02:40 | 14.25557 | 17.39732 | 35790 ft | 441 kts | 320° |
| 2026-05-07 02:41 | 14.30125 | 17.35508 | 35784 ft | 441 kts | 320° |
| 2026-05-07 02:41 | 14.34652 | 17.31320 | 35800 ft | 440 kts | 320° |
| 2026-05-07 02:42 | 14.39205 | 17.27106 | 35788 ft | 440 kts | 320° |
| 2026-05-07 02:42 | 14.43754 | 17.22893 | 35786 ft | 440 kts | 320° |
| 2026-05-07 02:43 | 14.48306 | 17.18675 | 35788 ft | 440 kts | 320° |
| 2026-05-07 02:43 | 14.52855 | 17.14458 | 35788 ft | 440 kts | 320° |
| 2026-05-07 02:44 | 14.57406 | 17.10235 | 35787 ft | 440 kts | 320° |
| 2026-05-07 02:44 | 14.61956 | 17.06012 | 35785 ft | 440 kts | 320° |
| 2026-05-07 02:45 | 14.66507 | 17.01785 | 35792 ft | 439 kts | 319° |
| 2026-05-07 02:45 | 14.71049 | 16.97563 | 35796 ft | 438 kts | 319° |
| 2026-05-07 02:46 | 14.75556 | 16.93371 | 35793 ft | 438 kts | 319° |
| 2026-05-07 02:46 | 14.80087 | 16.89155 | 35793 ft | 438 kts | 319° |
| 2026-05-07 02:47 | 14.83882 | 16.85621 | 35797 ft | 438 kts | 319° |
| 2026-05-07 02:47 | 14.88413 | 16.81401 | 35801 ft | 438 kts | 319° |
| 2026-05-07 02:48 | 14.92942 | 16.77179 | 35796 ft | 438 kts | 319° |
| 2026-05-07 02:48 | 14.97470 | 16.72955 | 35796 ft | 438 kts | 319° |
| 2026-05-07 02:49 | 15.02001 | 16.68727 | 35803 ft | 438 kts | 319° |
| 2026-05-07 02:49 | 15.06522 | 16.64505 | 35797 ft | 437 kts | 319° |
| 2026-05-07 02:50 | 15.11034 | 16.60290 | 35798 ft | 437 kts | 319° |
| 2026-05-07 02:50 | 15.15546 | 16.56071 | 35801 ft | 437 kts | 319° |
| 2026-05-07 02:51 | 15.20055 | 16.51853 | 35800 ft | 437 kts | 319° |
| 2026-05-07 02:51 | 15.24563 | 16.47633 | 35800 ft | 437 kts | 319° |
| 2026-05-07 02:52 | 15.29041 | 16.43440 | 35800 ft | 437 kts | 319° |
| 2026-05-07 02:52 | 15.33551 | 16.39213 | 35805 ft | 437 kts | 319° |
| 2026-05-07 02:53 | 15.38058 | 16.34986 | 35819 ft | 437 kts | 319° |
| 2026-05-07 02:53 | 15.42559 | 16.30764 | 35804 ft | 436 kts | 319° |
| 2026-05-07 02:54 | 15.47046 | 16.26550 | 35811 ft | 435 kts | 319° |
| 2026-05-07 02:54 | 15.51533 | 16.22335 | 35810 ft | 435 kts | 319° |
| 2026-05-07 02:55 | 15.56017 | 16.18120 | 35813 ft | 435 kts | 319° |
| 2026-05-07 02:55 | 15.60501 | 16.13903 | 35815 ft | 435 kts | 319° |
| 2026-05-07 02:56 | 15.64987 | 16.09680 | 35813 ft | 435 kts | 319° |
| 2026-05-07 02:56 | 15.69470 | 16.05458 | 35812 ft | 435 kts | 319° |
| 2026-05-07 02:57 | 15.73954 | 16.01232 | 35811 ft | 435 kts | 319° |
| 2026-05-07 02:57 | 15.78433 | 15.97009 | 35813 ft | 434 kts | 319° |
| 2026-05-07 02:58 | 15.82874 | 15.92819 | 35818 ft | 434 kts | 319° |
| 2026-05-07 02:58 | 15.87344 | 15.88599 | 35821 ft | 434 kts | 319° |
| 2026-05-07 02:59 | 15.91815 | 15.84375 | 35822 ft | 434 kts | 319° |
| 2026-05-07 02:59 | 15.96280 | 15.80154 | 35822 ft | 434 kts | 319° |
| 2026-05-07 03:00 | 16.00747 | 15.75928 | 35824 ft | 434 kts | 319° |
| 2026-05-07 03:00 | 16.05212 | 15.71702 | 35829 ft | 434 kts | 319° |
| 2026-05-07 03:01 | 16.09679 | 15.67472 | 35827 ft | 434 kts | 319° |
| 2026-05-07 03:01 | 16.14140 | 15.63244 | 35828 ft | 433 kts | 319° |
| 2026-05-07 03:02 | 16.18593 | 15.59022 | 35833 ft | 433 kts | 319° |
| 2026-05-07 03:02 | 16.23048 | 15.54795 | 35834 ft | 433 kts | 319° |
| 2026-05-07 03:03 | 16.27495 | 15.50572 | 35834 ft | 433 kts | 319° |
| 2026-05-07 03:03 | 16.31944 | 15.46345 | 35834 ft | 433 kts | 319° |
| 2026-05-07 03:04 | 16.36394 | 15.42114 | 35838 ft | 433 kts | 319° |
| 2026-05-07 03:04 | 16.40839 | 15.37885 | 35840 ft | 433 kts | 319° |
| 2026-05-07 03:05 | 16.45285 | 15.33653 | 35841 ft | 433 kts | 319° |
| 2026-05-07 03:05 | 16.49729 | 15.29420 | 35845 ft | 433 kts | 319° |
| 2026-05-07 03:06 | 16.54165 | 15.25191 | 35843 ft | 432 kts | 318° |
| 2026-05-07 03:06 | 16.58570 | 15.20990 | 35843 ft | 432 kts | 318° |
| 2026-05-07 03:07 | 16.63006 | 15.16755 | 35845 ft | 432 kts | 318° |
| 2026-05-07 03:07 | 16.67441 | 15.12520 | 35846 ft | 432 kts | 318° |
| 2026-05-07 03:08 | 16.71875 | 15.08282 | 35846 ft | 432 kts | 318° |
| 2026-05-07 03:08 | 16.76311 | 15.04041 | 35844 ft | 432 kts | 318° |
| 2026-05-07 03:09 | 16.80742 | 14.99800 | 35849 ft | 432 kts | 318° |
| 2026-05-07 03:09 | 16.85175 | 14.95555 | 35853 ft | 432 kts | 318° |
| 2026-05-07 03:10 | 16.89598 | 14.91316 | 35848 ft | 431 kts | 318° |
| 2026-05-07 03:10 | 16.94015 | 14.87081 | 35854 ft | 431 kts | 318° |
| 2026-05-07 03:11 | 16.98436 | 14.82839 | 35854 ft | 431 kts | 318° |
| 2026-05-07 03:11 | 17.02854 | 14.78598 | 35852 ft | 431 kts | 318° |
| 2026-05-07 03:12 | 17.07275 | 14.74350 | 35854 ft | 431 kts | 318° |
| 2026-05-07 03:12 | 17.11691 | 14.70104 | 35854 ft | 431 kts | 318° |
| 2026-05-07 03:13 | 17.16105 | 14.65858 | 35852 ft | 431 kts | 318° |
| 2026-05-07 03:13 | 17.20494 | 14.61633 | 35868 ft | 431 kts | 318° |
| 2026-05-07 03:14 | 17.24904 | 14.57384 | 35866 ft | 430 kts | 317° |
| 2026-05-07 03:15 | 17.31491 | 14.51033 | 35864 ft | 429 kts | 317° |
| 2026-05-07 03:15 | 17.35882 | 14.46795 | 35864 ft | 429 kts | 317° |
| 2026-05-07 03:16 | 17.40271 | 14.42556 | 35864 ft | 429 kts | 317° |
| 2026-05-07 03:16 | 17.44659 | 14.38316 | 35865 ft | 429 kts | 317° |
| 2026-05-07 03:17 | 17.49044 | 14.34075 | 35861 ft | 429 kts | 317° |
| 2026-05-07 03:17 | 17.53431 | 14.29829 | 35861 ft | 429 kts | 317° |
| 2026-05-07 03:18 | 17.57820 | 14.25578 | 35865 ft | 429 kts | 317° |
| 2026-05-07 03:18 | 17.62172 | 14.21361 | 35859 ft | 429 kts | 317° |
| 2026-05-07 03:19 | 17.66557 | 14.17108 | 35868 ft | 430 kts | 317° |
| 2026-05-07 03:19 | 17.70948 | 14.12847 | 35863 ft | 430 kts | 317° |
| 2026-05-07 03:20 | 17.75338 | 14.08584 | 35866 ft | 430 kts | 317° |
| 2026-05-07 03:20 | 17.79728 | 14.04317 | 35867 ft | 430 kts | 317° |
| 2026-05-07 03:21 | 17.84118 | 14.00048 | 35870 ft | 430 kts | 317° |
| 2026-05-07 03:21 | 17.88506 | 13.95777 | 35869 ft | 430 kts | 317° |
| 2026-05-07 03:22 | 17.92896 | 13.91502 | 35868 ft | 430 kts | 317° |
| 2026-05-07 03:22 | 17.97272 | 13.87237 | 35866 ft | 429 kts | 317° |
| 2026-05-07 03:23 | 18.01644 | 13.82973 | 35869 ft | 429 kts | 317° |
| 2026-05-07 03:23 | 18.06022 | 13.78700 | 35866 ft | 429 kts | 317° |
| 2026-05-07 03:24 | 18.10372 | 13.74451 | 35861 ft | 430 kts | 317° |
| 2026-05-07 03:24 | 18.14748 | 13.70175 | 35861 ft | 430 kts | 317° |
| 2026-05-07 03:25 | 18.19123 | 13.65896 | 35861 ft | 430 kts | 317° |
| 2026-05-07 03:25 | 18.23499 | 13.61613 | 35861 ft | 430 kts | 317° |
| 2026-05-07 03:26 | 18.27872 | 13.57329 | 35867 ft | 430 kts | 317° |
| 2026-05-07 03:26 | 18.32246 | 13.53042 | 35864 ft | 429 kts | 317° |
| 2026-05-07 03:27 | 18.36605 | 13.48766 | 35857 ft | 428 kts | 316° |
| 2026-05-07 03:27 | 18.40966 | 13.44485 | 35861 ft | 429 kts | 316° |
| 2026-05-07 03:28 | 18.45336 | 13.40192 | 35862 ft | 429 kts | 316° |
| 2026-05-07 03:28 | 18.49675 | 13.35927 | 35860 ft | 430 kts | 316° |
| 2026-05-07 03:29 | 18.54043 | 13.31630 | 35862 ft | 429 kts | 316° |
| 2026-05-07 03:29 | 18.58406 | 13.27334 | 35855 ft | 429 kts | 316° |
| 2026-05-07 03:30 | 18.62773 | 13.23032 | 35861 ft | 429 kts | 316° |
| 2026-05-07 03:30 | 18.67137 | 13.18729 | 35865 ft | 429 kts | 316° |
| 2026-05-07 03:31 | 18.71485 | 13.14440 | 35864 ft | 428 kts | 316° |
| 2026-05-07 03:31 | 18.75830 | 13.10149 | 35864 ft | 428 kts | 316° |
| 2026-05-07 03:32 | 18.80183 | 13.05847 | 35856 ft | 429 kts | 316° |
| 2026-05-07 03:32 | 18.84538 | 13.01541 | 35852 ft | 429 kts | 316° |
| 2026-05-07 03:33 | 18.88889 | 12.97235 | 35856 ft | 429 kts | 316° |
| 2026-05-07 03:33 | 18.93210 | 12.92955 | 35854 ft | 429 kts | 316° |
| 2026-05-07 03:34 | 18.97627 | 12.88721 | 35849 ft | 429 kts | 321° |
| 2026-05-07 03:34 | 19.02602 | 12.85214 | 35856 ft | 430 kts | 326° |
| 2026-05-07 03:35 | 19.07711 | 12.81939 | 35846 ft | 429 kts | 327° |
| 2026-05-07 03:35 | 19.12012 | 12.79234 | 35851 ft | 429 kts | 327° |
| 2026-05-07 03:36 | 19.17106 | 12.76022 | 35846 ft | 429 kts | 327° |
| 2026-05-07 03:36 | 19.22238 | 12.72766 | 35831 ft | 430 kts | 326° |
| 2026-05-07 03:37 | 19.27369 | 12.69501 | 35845 ft | 430 kts | 326° |
| 2026-05-07 03:37 | 19.32505 | 12.66230 | 35841 ft | 430 kts | 326° |
| 2026-05-07 03:38 | 19.37634 | 12.62962 | 35839 ft | 430 kts | 326° |
| 2026-05-07 03:38 | 19.42749 | 12.59701 | 35831 ft | 429 kts | 326° |
| 2026-05-07 03:39 | 19.47859 | 12.56440 | 35843 ft | 429 kts | 326° |
| 2026-05-07 03:39 | 19.52971 | 12.53176 | 35838 ft | 429 kts | 326° |
| 2026-05-07 03:40 | 19.58079 | 12.49911 | 35843 ft | 429 kts | 326° |
| 2026-05-07 03:40 | 19.63188 | 12.46643 | 35837 ft | 429 kts | 326° |
| 2026-05-07 03:41 | 19.68296 | 12.43375 | 35830 ft | 429 kts | 326° |
| 2026-05-07 03:41 | 19.73368 | 12.40126 | 35827 ft | 428 kts | 326° |
| 2026-05-07 03:42 | 19.78472 | 12.36853 | 35829 ft | 429 kts | 326° |
| 2026-05-07 03:42 | 19.83583 | 12.33575 | 35835 ft | 429 kts | 326° |
| 2026-05-07 03:43 | 19.88691 | 12.30296 | 35820 ft | 429 kts | 326° |
| 2026-05-07 03:43 | 19.93803 | 12.27013 | 35831 ft | 429 kts | 326° |
| 2026-05-07 03:44 | 19.98911 | 12.23728 | 35831 ft | 429 kts | 326° |
| 2026-05-07 03:44 | 20.04025 | 12.20438 | 35831 ft | 429 kts | 326° |
| 2026-05-07 03:45 | 20.09127 | 12.17153 | 35823 ft | 428 kts | 326° |
| 2026-05-07 03:45 | 20.14218 | 12.13872 | 35824 ft | 428 kts | 326° |
| 2026-05-07 03:46 | 20.19308 | 12.10590 | 35828 ft | 428 kts | 326° |
| 2026-05-07 03:46 | 20.24396 | 12.07305 | 35829 ft | 428 kts | 325° |
| 2026-05-07 03:47 | 20.29484 | 12.04019 | 35822 ft | 428 kts | 325° |
| 2026-05-07 03:47 | 20.34577 | 12.00726 | 35824 ft | 429 kts | 325° |
| 2026-05-07 03:48 | 20.39684 | 11.97423 | 35830 ft | 429 kts | 325° |
| 2026-05-07 03:48 | 20.44786 | 11.94119 | 35827 ft | 429 kts | 325° |
| 2026-05-07 03:49 | 20.49890 | 11.90813 | 35835 ft | 429 kts | 325° |
| 2026-05-07 03:49 | 20.54964 | 11.87523 | 35834 ft | 429 kts | 325° |
| 2026-05-07 03:50 | 20.60064 | 11.84212 | 35836 ft | 429 kts | 325° |
| 2026-05-07 03:50 | 20.65165 | 11.80897 | 35836 ft | 429 kts | 325° |
| 2026-05-07 03:51 | 20.70267 | 11.77578 | 35835 ft | 429 kts | 325° |
| 2026-05-07 03:51 | 20.75364 | 11.74261 | 35840 ft | 429 kts | 325° |
| 2026-05-07 03:52 | 20.80449 | 11.70949 | 35837 ft | 428 kts | 325° |
| 2026-05-07 03:52 | 20.85531 | 11.67636 | 35837 ft | 428 kts | 325° |
| 2026-05-07 03:53 | 20.90617 | 11.64317 | 35840 ft | 429 kts | 325° |
| 2026-05-07 03:53 | 20.95708 | 11.60993 | 35840 ft | 429 kts | 325° |
| 2026-05-07 03:54 | 21.00803 | 11.57663 | 35837 ft | 429 kts | 325° |
| 2026-05-07 03:54 | 21.05891 | 11.54336 | 35840 ft | 429 kts | 325° |
| 2026-05-07 03:55 | 21.10984 | 11.51003 | 35840 ft | 429 kts | 325° |
| 2026-05-07 03:55 | 21.16075 | 11.47668 | 35842 ft | 429 kts | 325° |
| 2026-05-07 03:56 | 21.21163 | 11.44333 | 35840 ft | 429 kts | 325° |
| 2026-05-07 03:56 | 21.26218 | 11.41017 | 35840 ft | 429 kts | 325° |
| 2026-05-07 03:57 | 21.31305 | 11.37677 | 35840 ft | 429 kts | 325° |
| 2026-05-07 03:57 | 21.36391 | 11.34336 | 35840 ft | 429 kts | 325° |
| 2026-05-07 03:58 | 21.41480 | 11.30990 | 35851 ft | 429 kts | 325° |
| 2026-05-07 03:58 | 21.46574 | 11.27637 | 35843 ft | 431 kts | 324° |
| 2026-05-07 03:59 | 21.51691 | 11.24265 | 35843 ft | 432 kts | 324° |
| 2026-05-07 03:59 | 21.56809 | 11.20892 | 35842 ft | 432 kts | 324° |
| 2026-05-07 04:00 | 21.61930 | 11.17514 | 35843 ft | 432 kts | 324° |
| 2026-05-07 04:00 | 21.67047 | 11.14135 | 35846 ft | 432 kts | 324° |
| 2026-05-07 04:01 | 21.72163 | 11.10754 | 35852 ft | 432 kts | 324° |
| 2026-05-07 04:01 | 21.77279 | 11.07370 | 35852 ft | 432 kts | 324° |
| 2026-05-07 04:02 | 21.82403 | 11.03977 | 35853 ft | 432 kts | 324° |
| 2026-05-07 04:02 | 21.87527 | 11.00582 | 35853 ft | 433 kts | 324° |
| 2026-05-07 04:03 | 21.92650 | 10.97185 | 35853 ft | 432 kts | 324° |
| 2026-05-07 04:03 | 21.97776 | 10.93783 | 35853 ft | 432 kts | 324° |
| 2026-05-07 04:04 | 22.02863 | 10.90404 | 35853 ft | 432 kts | 324° |
| 2026-05-07 04:04 | 22.07986 | 10.86998 | 35854 ft | 432 kts | 324° |
| 2026-05-07 04:05 | 22.13106 | 10.83591 | 35858 ft | 433 kts | 324° |
| 2026-05-07 04:05 | 22.18232 | 10.80177 | 35857 ft | 433 kts | 324° |
| 2026-05-07 04:06 | 22.23360 | 10.76758 | 35857 ft | 433 kts | 324° |
| 2026-05-07 04:06 | 22.28487 | 10.73338 | 35856 ft | 433 kts | 324° |
| 2026-05-07 04:07 | 22.33617 | 10.69913 | 35856 ft | 433 kts | 324° |
| 2026-05-07 04:07 | 22.38745 | 10.66485 | 35859 ft | 433 kts | 324° |
| 2026-05-07 04:08 | 22.43869 | 10.63058 | 35878 ft | 433 kts | 323° |
| 2026-05-07 04:08 | 22.48987 | 10.59632 | 35860 ft | 432 kts | 323° |
| 2026-05-07 04:09 | 22.54100 | 10.56205 | 35859 ft | 432 kts | 323° |
| 2026-05-07 04:09 | 22.59216 | 10.52773 | 35864 ft | 433 kts | 323° |
| 2026-05-07 04:10 | 22.64346 | 10.49357 | 35865 ft | 433 kts | 324° |
| 2026-05-07 04:10 | 22.69526 | 10.46091 | 35861 ft | 434 kts | 325° |
| 2026-05-07 04:11 | 22.74769 | 10.42846 | 35861 ft | 434 kts | 325° |
| 2026-05-07 04:11 | 22.80006 | 10.39595 | 35867 ft | 433 kts | 325° |
| 2026-05-07 04:12 | 22.85226 | 10.36335 | 35868 ft | 432 kts | 325° |
| 2026-05-07 04:12 | 22.90435 | 10.33073 | 35871 ft | 432 kts | 325° |
| 2026-05-07 04:13 | 22.95643 | 10.29807 | 35871 ft | 432 kts | 325° |
| 2026-05-07 04:13 | 23.00852 | 10.26539 | 35869 ft | 432 kts | 325° |
| 2026-05-07 04:14 | 23.06060 | 10.23269 | 35870 ft | 432 kts | 325° |
| 2026-05-07 04:14 | 23.11269 | 10.19996 | 35864 ft | 432 kts | 324° |
| 2026-05-07 04:15 | 23.16486 | 10.16713 | 35881 ft | 434 kts | 324° |
| 2026-05-07 04:15 | 23.21720 | 10.13418 | 35881 ft | 435 kts | 324° |
| 2026-05-07 04:16 | 23.26952 | 10.10121 | 35878 ft | 435 kts | 324° |
| 2026-05-07 04:16 | 23.32185 | 10.06821 | 35881 ft | 435 kts | 324° |
| 2026-05-07 04:17 | 23.37416 | 10.03519 | 35881 ft | 435 kts | 324° |
| 2026-05-07 04:17 | 23.42650 | 10.00212 | 35881 ft | 435 kts | 324° |
| 2026-05-07 04:18 | 23.47890 | 9.96896 | 35884 ft | 436 kts | 324° |
| 2026-05-07 04:18 | 23.53143 | 9.93571 | 35884 ft | 436 kts | 324° |
| 2026-05-07 04:19 | 23.58355 | 9.90269 | 35884 ft | 436 kts | 324° |
| 2026-05-07 04:19 | 23.63603 | 9.86941 | 35884 ft | 436 kts | 324° |
| 2026-05-07 04:20 | 23.68851 | 9.83609 | 35886 ft | 436 kts | 324° |
| 2026-05-07 04:20 | 23.74099 | 9.80274 | 35889 ft | 437 kts | 323° |
| 2026-05-07 04:21 | 23.81973 | 9.75265 | 35889 ft | 437 kts | 323° |
| 2026-05-07 04:21 | 23.87223 | 9.71921 | 35894 ft | 437 kts | 323° |
| 2026-05-07 04:22 | 23.92472 | 9.68575 | 35899 ft | 437 kts | 323° |
| 2026-05-07 04:22 | 23.96835 | 9.65790 | 35896 ft | 437 kts | 323° |
| 2026-05-07 04:23 | 24.02085 | 9.62437 | 35913 ft | 437 kts | 323° |
| 2026-05-07 04:23 | 24.08182 | 9.58540 | 35936 ft | 437 kts | 323° |
| 2026-05-07 04:24 | 24.12577 | 9.55728 | 35960 ft | 436 kts | 323° |
| 2026-05-07 04:24 | 24.17812 | 9.52375 | 35976 ft | 436 kts | 323° |
| 2026-05-07 04:25 | 24.23006 | 9.49045 | 35993 ft | 436 kts | 323° |
| 2026-05-07 04:25 | 24.28376 | 9.45922 | 35999 ft | 443 kts | 331° |
| 2026-05-07 04:26 | 24.34377 | 9.44058 | 35993 ft | 451 kts | 340° |
| 2026-05-07 04:26 | 24.40541 | 9.42652 | 35987 ft | 453 kts | 341° |
| 2026-05-07 04:27 | 24.46736 | 9.41328 | 35967 ft | 453 kts | 341° |
| 2026-05-07 04:27 | 24.52923 | 9.39988 | 35952 ft | 453 kts | 341° |
| 2026-05-07 04:28 | 24.59101 | 9.38624 | 35931 ft | 453 kts | 341° |
| 2026-05-07 04:28 | 24.65281 | 9.37248 | 35916 ft | 453 kts | 341° |
| 2026-05-07 04:29 | 24.71461 | 9.35870 | 35921 ft | 453 kts | 341° |
| 2026-05-07 04:29 | 24.77641 | 9.34492 | 35929 ft | 454 kts | 341° |
| 2026-05-07 04:30 | 24.83835 | 9.33111 | 35928 ft | 454 kts | 341° |
| 2026-05-07 04:30 | 24.90027 | 9.31732 | 35925 ft | 454 kts | 341° |
| 2026-05-07 04:31 | 24.96217 | 9.30351 | 35937 ft | 454 kts | 341° |
| 2026-05-07 04:31 | 25.02411 | 9.28964 | 35925 ft | 454 kts | 341° |
| 2026-05-07 04:32 | 25.08606 | 9.27577 | 35934 ft | 455 kts | 340° |
| 2026-05-07 04:32 | 25.14773 | 9.26193 | 35935 ft | 455 kts | 340° |
| 2026-05-07 04:33 | 25.20979 | 9.24801 | 35930 ft | 455 kts | 340° |
| 2026-05-07 04:33 | 25.27190 | 9.23408 | 35926 ft | 455 kts | 340° |
| 2026-05-07 04:34 | 25.33394 | 9.22013 | 35926 ft | 455 kts | 340° |
| 2026-05-07 04:34 | 25.39594 | 9.20618 | 35922 ft | 455 kts | 340° |
| 2026-05-07 04:35 | 25.45803 | 9.19219 | 35918 ft | 455 kts | 340° |
| 2026-05-07 04:35 | 25.52019 | 9.17819 | 35921 ft | 456 kts | 340° |
| 2026-05-07 04:36 | 25.58237 | 9.16417 | 35919 ft | 456 kts | 340° |
| 2026-05-07 04:36 | 25.64447 | 9.15012 | 35911 ft | 455 kts | 340° |
| 2026-05-07 04:37 | 25.70616 | 9.13616 | 35915 ft | 455 kts | 340° |
| 2026-05-07 04:37 | 25.76824 | 9.12210 | 35906 ft | 456 kts | 340° |
| 2026-05-07 04:38 | 25.83040 | 9.10801 | 35909 ft | 456 kts | 340° |
| 2026-05-07 04:38 | 25.89256 | 9.09391 | 35903 ft | 456 kts | 340° |
| 2026-05-07 04:39 | 25.95475 | 9.07977 | 35909 ft | 457 kts | 340° |
| 2026-05-07 04:39 | 26.01717 | 9.06558 | 35910 ft | 458 kts | 339° |
| 2026-05-07 04:40 | 26.07961 | 9.05149 | 35905 ft | 458 kts | 339° |
| 2026-05-07 04:40 | 26.14201 | 9.03742 | 35882 ft | 458 kts | 339° |
| 2026-05-07 04:41 | 26.20447 | 9.02330 | 35896 ft | 458 kts | 339° |
| 2026-05-07 04:41 | 26.26695 | 9.00916 | 35893 ft | 458 kts | 339° |
| 2026-05-07 04:42 | 26.32941 | 8.99501 | 35885 ft | 458 kts | 339° |
| 2026-05-07 04:42 | 26.39189 | 8.98083 | 35874 ft | 458 kts | 339° |
| 2026-05-07 04:43 | 26.45397 | 8.96673 | 35875 ft | 458 kts | 339° |
| 2026-05-07 04:43 | 26.51642 | 8.95254 | 35871 ft | 458 kts | 339° |
| 2026-05-07 04:44 | 26.57885 | 8.93832 | 35870 ft | 458 kts | 339° |
| 2026-05-07 04:44 | 26.64128 | 8.92410 | 35864 ft | 458 kts | 339° |
| 2026-05-07 04:45 | 26.70371 | 8.90985 | 35861 ft | 458 kts | 339° |
| 2026-05-07 04:45 | 26.76610 | 8.89560 | 35882 ft | 458 kts | 339° |
| 2026-05-07 04:46 | 26.82856 | 8.88132 | 35879 ft | 458 kts | 339° |
| 2026-05-07 04:46 | 26.89098 | 8.86703 | 35878 ft | 458 kts | 339° |
| 2026-05-07 04:47 | 26.95333 | 8.85276 | 35869 ft | 456 kts | 339° |
| 2026-05-07 04:47 | 27.01550 | 8.83853 | 35860 ft | 456 kts | 339° |
| 2026-05-07 04:48 | 27.07766 | 8.82437 | 35860 ft | 456 kts | 339° |
| 2026-05-07 04:48 | 27.13989 | 8.81020 | 35865 ft | 456 kts | 339° |
| 2026-05-07 04:49 | 27.20203 | 8.79604 | 35877 ft | 456 kts | 339° |
| 2026-05-07 04:49 | 27.26417 | 8.78186 | 35864 ft | 455 kts | 339° |
| 2026-05-07 04:50 | 27.32593 | 8.76774 | 35864 ft | 455 kts | 339° |
| 2026-05-07 04:50 | 27.38803 | 8.75353 | 35864 ft | 455 kts | 339° |
| 2026-05-07 04:51 | 27.45011 | 8.73931 | 35867 ft | 455 kts | 339° |
| 2026-05-07 04:51 | 27.51223 | 8.72507 | 35868 ft | 455 kts | 339° |
| 2026-05-07 04:52 | 27.57435 | 8.71080 | 35871 ft | 456 kts | 339° |
| 2026-05-07 04:52 | 27.63664 | 8.69647 | 35870 ft | 457 kts | 339° |
| 2026-05-07 04:53 | 27.69903 | 8.68212 | 35870 ft | 458 kts | 339° |
| 2026-05-07 04:53 | 27.76149 | 8.66774 | 35870 ft | 458 kts | 339° |
| 2026-05-07 04:54 | 27.82386 | 8.65335 | 35872 ft | 457 kts | 339° |
| 2026-05-07 04:54 | 27.88625 | 8.63894 | 35870 ft | 458 kts | 339° |
| 2026-05-07 04:55 | 27.94868 | 8.62450 | 35870 ft | 458 kts | 339° |
| 2026-05-07 04:55 | 28.01112 | 8.61005 | 35870 ft | 458 kts | 339° |
| 2026-05-07 04:56 | 28.07355 | 8.59558 | 35875 ft | 458 kts | 339° |
| 2026-05-07 04:56 | 28.13606 | 8.58116 | 35876 ft | 459 kts | 339° |
| 2026-05-07 04:57 | 28.19867 | 8.56682 | 35875 ft | 459 kts | 339° |
| 2026-05-07 04:57 | 28.26131 | 8.55248 | 35875 ft | 459 kts | 339° |
| 2026-05-07 04:58 | 28.32389 | 8.53811 | 35878 ft | 459 kts | 339° |
| 2026-05-07 04:58 | 28.38648 | 8.52370 | 35878 ft | 459 kts | 339° |
| 2026-05-07 04:59 | 28.44912 | 8.50927 | 35881 ft | 459 kts | 339° |
| 2026-05-07 04:59 | 28.51138 | 8.49491 | 35882 ft | 460 kts | 339° |
| 2026-05-07 05:00 | 28.57412 | 8.48041 | 35887 ft | 460 kts | 339° |
| 2026-05-07 05:00 | 28.63688 | 8.46590 | 35886 ft | 460 kts | 339° |
| 2026-05-07 05:01 | 28.69956 | 8.45139 | 35905 ft | 460 kts | 339° |
| 2026-05-07 05:01 | 28.76222 | 8.43688 | 35878 ft | 459 kts | 339° |
| 2026-05-07 05:02 | 28.82484 | 8.42235 | 35889 ft | 459 kts | 339° |
| 2026-05-07 05:02 | 28.88746 | 8.40780 | 35885 ft | 459 kts | 339° |
| 2026-05-07 05:03 | 28.95005 | 8.39323 | 35884 ft | 459 kts | 339° |
| 2026-05-07 05:03 | 29.01222 | 8.37875 | 35898 ft | 459 kts | 339° |
| 2026-05-07 05:04 | 29.07460 | 8.36422 | 35884 ft | 457 kts | 339° |
| 2026-05-07 05:04 | 29.13689 | 8.34968 | 35881 ft | 456 kts | 339° |
| 2026-05-07 05:05 | 29.19916 | 8.33510 | 35875 ft | 458 kts | 339° |
| 2026-05-07 05:05 | 29.26170 | 8.32044 | 35867 ft | 459 kts | 339° |
| 2026-05-07 05:06 | 29.32426 | 8.30578 | 35875 ft | 459 kts | 340° |
| 2026-05-07 05:06 | 29.38680 | 8.29112 | 35865 ft | 458 kts | 340° |
| 2026-05-07 05:07 | 29.44928 | 8.27644 | 35868 ft | 458 kts | 340° |
| 2026-05-07 05:07 | 29.51181 | 8.26173 | 35863 ft | 459 kts | 340° |
| 2026-05-07 05:08 | 29.57429 | 8.24701 | 35873 ft | 459 kts | 340° |
| 2026-05-07 05:08 | 29.63710 | 8.23217 | 35866 ft | 462 kts | 340° |
| 2026-05-07 05:09 | 29.70015 | 8.21728 | 35851 ft | 463 kts | 340° |
| 2026-05-07 05:09 | 29.76284 | 8.20248 | 35848 ft | 463 kts | 340° |
| 2026-05-07 05:10 | 29.82595 | 8.18754 | 35857 ft | 463 kts | 340° |
| 2026-05-07 05:10 | 29.88903 | 8.17259 | 35855 ft | 463 kts | 340° |
| 2026-05-07 05:11 | 29.95226 | 8.15757 | 35846 ft | 465 kts | 340° |
| 2026-05-07 05:11 | 30.00493 | 8.14504 | 35848 ft | 465 kts | 340° |
| 2026-05-07 05:12 | 30.06828 | 8.13000 | 35838 ft | 465 kts | 340° |
| 2026-05-07 05:12 | 30.13167 | 8.11515 | 35841 ft | 465 kts | 340° |
| 2026-05-07 05:13 | 30.19501 | 8.10038 | 35842 ft | 463 kts | 340° |
| 2026-05-07 05:13 | 30.25818 | 8.08560 | 35841 ft | 462 kts | 340° |
| 2026-05-07 05:14 | 30.32123 | 8.07079 | 35838 ft | 462 kts | 340° |
| 2026-05-07 05:14 | 30.38434 | 8.05594 | 35837 ft | 462 kts | 340° |
| 2026-05-07 05:15 | 30.44740 | 8.04109 | 35832 ft | 463 kts | 340° |
| 2026-05-07 05:15 | 30.51012 | 8.02631 | 35832 ft | 463 kts | 340° |
| 2026-05-07 05:16 | 30.57328 | 8.01142 | 35827 ft | 462 kts | 340° |
| 2026-05-07 05:16 | 30.63635 | 7.99652 | 35827 ft | 462 kts | 340° |
| 2026-05-07 05:17 | 30.69940 | 7.98160 | 35829 ft | 462 kts | 340° |
| 2026-05-07 05:17 | 30.76249 | 7.96664 | 35835 ft | 463 kts | 340° |
| 2026-05-07 05:18 | 30.82582 | 7.95160 | 35826 ft | 465 kts | 340° |
| 2026-05-07 05:18 | 30.88930 | 7.93652 | 35827 ft | 466 kts | 340° |
| 2026-05-07 05:19 | 30.95279 | 7.92144 | 35826 ft | 466 kts | 340° |
| 2026-05-07 05:19 | 31.01625 | 7.90633 | 35840 ft | 466 kts | 340° |
| 2026-05-07 05:20 | 31.07970 | 7.89120 | 35819 ft | 465 kts | 340° |
| 2026-05-07 05:20 | 31.14267 | 7.87616 | 35818 ft | 465 kts | 340° |
| 2026-05-07 05:21 | 31.23772 | 7.85342 | 35814 ft | 465 kts | 340° |
| 2026-05-07 05:22 | 31.30110 | 7.83822 | 35831 ft | 465 kts | 340° |
| 2026-05-07 05:22 | 31.36457 | 7.82298 | 35818 ft | 466 kts | 340° |
| 2026-05-07 05:23 | 31.42810 | 7.80772 | 35806 ft | 466 kts | 340° |
| 2026-05-07 05:23 | 31.49160 | 7.79244 | 35807 ft | 466 kts | 340° |
| 2026-05-07 05:24 | 31.55516 | 7.77713 | 35810 ft | 466 kts | 340° |
| 2026-05-07 05:24 | 31.61888 | 7.76173 | 35813 ft | 470 kts | 340° |
| 2026-05-07 05:25 | 31.68321 | 7.74615 | 35812 ft | 473 kts | 340° |
| 2026-05-07 05:25 | 31.74722 | 7.73069 | 35810 ft | 473 kts | 340° |
| 2026-05-07 05:26 | 31.81173 | 7.71530 | 35810 ft | 473 kts | 340° |
| 2026-05-07 05:26 | 31.87626 | 7.70007 | 35812 ft | 473 kts | 340° |
| 2026-05-07 05:27 | 31.94091 | 7.68479 | 35809 ft | 474 kts | 340° |
| 2026-05-07 05:27 | 32.00563 | 7.66945 | 35815 ft | 474 kts | 340° |
| 2026-05-07 05:28 | 32.07026 | 7.65409 | 35813 ft | 474 kts | 340° |
| 2026-05-07 05:28 | 32.13490 | 7.63871 | 35825 ft | 474 kts | 339° |
| 2026-05-07 05:29 | 32.19944 | 7.62334 | 35820 ft | 472 kts | 339° |
| 2026-05-07 05:29 | 32.26383 | 7.60798 | 35819 ft | 472 kts | 339° |
| 2026-05-07 05:30 | 32.32820 | 7.59259 | 35822 ft | 472 kts | 339° |
| 2026-05-07 05:30 | 32.39218 | 7.57726 | 35837 ft | 472 kts | 339° |
| 2026-05-07 05:31 | 32.45658 | 7.56182 | 35817 ft | 472 kts | 339° |
| 2026-05-07 05:31 | 32.52101 | 7.54634 | 35820 ft | 473 kts | 339° |
| 2026-05-07 05:32 | 32.58547 | 7.53085 | 35818 ft | 473 kts | 339° |
| 2026-05-07 05:32 | 32.64993 | 7.51533 | 35823 ft | 473 kts | 339° |
| 2026-05-07 05:33 | 32.71451 | 7.49975 | 35821 ft | 474 kts | 339° |
| 2026-05-07 05:33 | 32.77929 | 7.48409 | 35832 ft | 475 kts | 339° |
| 2026-05-07 05:34 | 32.84414 | 7.46841 | 35833 ft | 475 kts | 339° |
| 2026-05-07 05:34 | 32.90898 | 7.45272 | 35828 ft | 475 kts | 339° |
| 2026-05-07 05:35 | 32.97383 | 7.43699 | 35835 ft | 476 kts | 338° |
| 2026-05-07 05:35 | 33.03870 | 7.42123 | 35832 ft | 476 kts | 338° |
| 2026-05-07 05:36 | 33.10355 | 7.40545 | 35836 ft | 476 kts | 338° |
| 2026-05-07 05:36 | 33.16839 | 7.38965 | 35837 ft | 476 kts | 338° |
| 2026-05-07 05:37 | 33.23324 | 7.37382 | 35837 ft | 476 kts | 338° |
| 2026-05-07 05:37 | 33.29766 | 7.35808 | 35840 ft | 476 kts | 338° |
| 2026-05-07 05:38 | 33.36255 | 7.34220 | 35841 ft | 476 kts | 338° |
| 2026-05-07 05:38 | 33.42742 | 7.32629 | 35841 ft | 476 kts | 338° |
| 2026-05-07 05:39 | 33.49231 | 7.31037 | 35858 ft | 476 kts | 338° |
| 2026-05-07 05:39 | 33.55718 | 7.29442 | 35848 ft | 475 kts | 338° |
| 2026-05-07 05:40 | 33.62197 | 7.27846 | 35848 ft | 475 kts | 338° |
| 2026-05-07 05:40 | 33.68671 | 7.26249 | 35848 ft | 475 kts | 338° |
| 2026-05-07 05:41 | 33.75149 | 7.24648 | 35878 ft | 475 kts | 337° |
| 2026-05-07 05:41 | 33.81622 | 7.23048 | 35850 ft | 474 kts | 337° |
| 2026-05-07 05:42 | 33.88073 | 7.21450 | 35850 ft | 473 kts | 337° |
| 2026-05-07 05:42 | 33.94527 | 7.19847 | 35852 ft | 473 kts | 337° |
| 2026-05-07 05:43 | 34.00937 | 7.18253 | 35878 ft | 474 kts | 337° |
| 2026-05-07 05:43 | 34.07387 | 7.16647 | 35850 ft | 473 kts | 337° |
| 2026-05-07 05:44 | 34.13828 | 7.15042 | 35851 ft | 473 kts | 337° |
| 2026-05-07 05:44 | 34.20269 | 7.13432 | 35852 ft | 473 kts | 337° |
| 2026-05-07 05:45 | 34.26715 | 7.11820 | 35850 ft | 473 kts | 337° |
| 2026-05-07 05:45 | 34.33156 | 7.10208 | 35852 ft | 472 kts | 336° |
| 2026-05-07 05:46 | 34.39587 | 7.08594 | 35851 ft | 472 kts | 336° |
| 2026-05-07 05:46 | 34.46022 | 7.06976 | 35859 ft | 472 kts | 336° |
| 2026-05-07 05:47 | 34.52453 | 7.05357 | 35859 ft | 472 kts | 336° |
| 2026-05-07 05:47 | 34.58887 | 7.03736 | 35865 ft | 471 kts | 336° |
| 2026-05-07 05:48 | 34.65308 | 7.02115 | 35876 ft | 471 kts | 336° |
| 2026-05-07 05:48 | 34.71725 | 7.00492 | 35875 ft | 471 kts | 336° |
| 2026-05-07 05:49 | 34.78144 | 6.98865 | 35883 ft | 471 kts | 336° |
| 2026-05-07 05:49 | 34.84532 | 6.97265 | 35902 ft | 472 kts | 336° |
| 2026-05-07 05:50 | 34.90972 | 6.95676 | 35895 ft | 472 kts | 336° |
| 2026-05-07 05:50 | 34.97414 | 6.94083 | 35908 ft | 473 kts | 336° |
| 2026-05-07 05:51 | 35.03863 | 6.92488 | 35913 ft | 473 kts | 336° |
| 2026-05-07 05:51 | 35.10313 | 6.90887 | 35928 ft | 473 kts | 336° |
| 2026-05-07 05:52 | 35.16753 | 6.89284 | 35935 ft | 472 kts | 336° |
| 2026-05-07 05:52 | 35.23190 | 6.87679 | 35935 ft | 472 kts | 336° |
| 2026-05-07 05:53 | 35.29633 | 6.86069 | 35945 ft | 472 kts | 336° |
| 2026-05-07 05:53 | 35.36071 | 6.84459 | 35942 ft | 472 kts | 335° |
| 2026-05-07 05:54 | 35.42516 | 6.82844 | 35948 ft | 474 kts | 336° |
| 2026-05-07 05:54 | 35.48988 | 6.81216 | 35946 ft | 475 kts | 336° |
| 2026-05-07 05:55 | 35.55472 | 6.79589 | 35945 ft | 475 kts | 336° |
| 2026-05-07 05:55 | 35.61911 | 6.77972 | 35948 ft | 474 kts | 336° |
| 2026-05-07 05:56 | 35.68362 | 6.76348 | 35947 ft | 473 kts | 336° |
| 2026-05-07 05:56 | 35.74809 | 6.74718 | 35947 ft | 473 kts | 336° |
| 2026-05-07 05:57 | 35.81261 | 6.73084 | 35947 ft | 473 kts | 336° |
| 2026-05-07 05:57 | 35.87717 | 6.71447 | 35950 ft | 473 kts | 336° |
| 2026-05-07 05:58 | 35.94171 | 6.69809 | 35950 ft | 473 kts | 336° |
| 2026-05-07 05:58 | 36.00623 | 6.68169 | 35951 ft | 472 kts | 336° |
| 2026-05-07 05:59 | 36.07061 | 6.66532 | 35976 ft | 471 kts | 335° |
| 2026-05-07 05:59 | 36.13477 | 6.64896 | 35961 ft | 470 kts | 335° |
| 2026-05-07 06:00 | 36.19840 | 6.63269 | 35963 ft | 470 kts | 335° |
| 2026-05-07 06:00 | 36.26251 | 6.61655 | 35965 ft | 474 kts | 338° |
| 2026-05-07 06:00 | 36.29584 | 6.61258 | 35967 ft | 489 kts | 347° |
| 2026-05-07 06:01 | 36.33033 | 6.61429 | 35997 ft | 499 kts | 352° |
| 2026-05-07 06:01 | 36.39989 | 6.62317 | 35968 ft | 505 kts | 355° |
| 2026-05-07 06:02 | 36.45846 | 6.63251 | 35960 ft | 506 kts | 355° |
| 2026-05-07 06:02 | 36.52834 | 6.64375 | 35955 ft | 506 kts | 355° |
| 2026-05-07 06:03 | 36.59824 | 6.65467 | 35948 ft | 506 kts | 355° |
| 2026-05-07 06:03 | 36.66773 | 6.66533 | 35942 ft | 507 kts | 355° |
| 2026-05-07 06:04 | 36.73780 | 6.67599 | 35945 ft | 508 kts | 355° |
| 2026-05-07 06:04 | 36.80799 | 6.68665 | 35987 ft | 507 kts | 354° |
| 2026-05-07 06:05 | 36.87806 | 6.69756 | 35944 ft | 507 kts | 355° |
| 2026-05-07 06:05 | 36.94804 | 6.70834 | 35940 ft | 507 kts | 355° |
| 2026-05-07 06:06 | 37.01804 | 6.71910 | 35938 ft | 507 kts | 354° |
| 2026-05-07 06:06 | 37.08807 | 6.72991 | 35939 ft | 507 kts | 354° |
| 2026-05-07 06:07 | 37.15794 | 6.74073 | 35938 ft | 506 kts | 354° |
| 2026-05-07 06:07 | 37.22785 | 6.75157 | 35934 ft | 506 kts | 354° |
| 2026-05-07 06:08 | 37.29776 | 6.76242 | 35976 ft | 506 kts | 354° |
| 2026-05-07 06:08 | 37.36689 | 6.77322 | 35939 ft | 503 kts | 354° |
| 2026-05-07 06:09 | 37.43631 | 6.78405 | 35936 ft | 502 kts | 353° |
| 2026-05-07 06:09 | 37.50567 | 6.79485 | 35938 ft | 502 kts | 353° |
| 2026-05-07 06:10 | 37.57499 | 6.80569 | 35936 ft | 501 kts | 353° |
| 2026-05-07 06:10 | 37.64418 | 6.81656 | 35944 ft | 500 kts | 353° |
| 2026-05-07 06:11 | 37.71323 | 6.82739 | 35949 ft | 500 kts | 353° |
| 2026-05-07 06:11 | 37.78232 | 6.83824 | 35953 ft | 500 kts | 353° |
| 2026-05-07 06:12 | 37.85135 | 6.84914 | 35947 ft | 498 kts | 353° |
| 2026-05-07 06:12 | 37.91992 | 6.86002 | 35949 ft | 496 kts | 353° |
| 2026-05-07 06:13 | 37.98837 | 6.87084 | 35952 ft | 496 kts | 353° |
| 2026-05-07 06:13 | 38.05686 | 6.88166 | 35955 ft | 496 kts | 352° |
| 2026-05-07 06:14 | 38.12542 | 6.89253 | 35955 ft | 496 kts | 352° |
| 2026-05-07 06:14 | 38.19397 | 6.90344 | 35960 ft | 497 kts | 352° |
| 2026-05-07 06:15 | 38.26255 | 6.91438 | 35960 ft | 497 kts | 352° |
| 2026-05-07 06:15 | 38.33117 | 6.92534 | 35960 ft | 497 kts | 352° |
| 2026-05-07 06:16 | 38.39947 | 6.93628 | 35957 ft | 497 kts | 352° |
| 2026-05-07 06:16 | 38.46806 | 6.94728 | 35981 ft | 497 kts | 353° |
| 2026-05-07 06:17 | 38.53662 | 6.95831 | 35960 ft | 496 kts | 353° |
| 2026-05-07 06:17 | 38.60507 | 6.96933 | 35961 ft | 496 kts | 353° |
| 2026-05-07 06:18 | 38.67360 | 6.98038 | 35965 ft | 496 kts | 353° |
| 2026-05-07 06:18 | 38.74208 | 6.99144 | 35966 ft | 496 kts | 353° |
| 2026-05-07 06:19 | 38.81051 | 7.00253 | 35965 ft | 496 kts | 353° |
| 2026-05-07 06:19 | 38.87890 | 7.01362 | 35972 ft | 496 kts | 353° |
| 2026-05-07 06:20 | 38.94737 | 7.02473 | 35970 ft | 496 kts | 354° |
| 2026-05-07 06:20 | 39.01578 | 7.03529 | 35971 ft | 492 kts | 352° |
| 2026-05-07 06:21 | 39.08332 | 7.04170 | 35971 ft | 488 kts | 349° |
| 2026-05-07 06:21 | 39.15110 | 7.04674 | 36000 ft | 488 kts | 350° |
| 2026-05-07 06:22 | 39.21894 | 7.05203 | 35975 ft | 489 kts | 351° |
| 2026-05-07 06:22 | 39.32089 | 7.06064 | 35975 ft | 490 kts | 351° |
| 2026-05-07 06:23 | 39.38888 | 7.06650 | 35991 ft | 490 kts | 353° |
| 2026-05-07 06:23 | 39.45685 | 7.07235 | 35980 ft | 490 kts | 353° |
| 2026-05-07 06:24 | 39.52490 | 7.07823 | 35977 ft | 490 kts | 353° |
| 2026-05-07 06:24 | 39.59294 | 7.08410 | 36000 ft | 490 kts | 353° |
| 2026-05-07 06:25 | 39.66095 | 7.08997 | 35981 ft | 490 kts | 354° |
| 2026-05-07 06:25 | 39.72894 | 7.09587 | 35981 ft | 490 kts | 354° |
| 2026-05-07 06:26 | 39.79696 | 7.10177 | 35987 ft | 490 kts | 354° |
| 2026-05-07 06:26 | 39.86500 | 7.10768 | 35990 ft | 490 kts | 355° |
| 2026-05-07 06:27 | 39.93301 | 7.11361 | 35984 ft | 490 kts | 355° |
| 2026-05-07 06:27 | 40.00061 | 7.11952 | 35985 ft | 490 kts | 355° |
| 2026-05-07 06:28 | 40.06874 | 7.12548 | 35989 ft | 490 kts | 355° |
| 2026-05-07 06:28 | 40.13677 | 7.13144 | 35990 ft | 490 kts | 355° |
| 2026-05-07 06:29 | 40.20490 | 7.13743 | 35993 ft | 490 kts | 355° |
| 2026-05-07 06:29 | 40.27294 | 7.14342 | 36013 ft | 490 kts | 355° |
| 2026-05-07 06:30 | 40.34104 | 7.14942 | 35995 ft | 490 kts | 355° |
| 2026-05-07 06:30 | 40.40904 | 7.15544 | 35999 ft | 490 kts | 355° |
| 2026-05-07 06:31 | 40.47706 | 7.16146 | 35998 ft | 490 kts | 355° |
| 2026-05-07 06:31 | 40.54516 | 7.16750 | 36001 ft | 490 kts | 355° |
| 2026-05-07 06:32 | 40.61319 | 7.17355 | 36001 ft | 490 kts | 355° |
| 2026-05-07 06:32 | 40.68077 | 7.17957 | 36002 ft | 490 kts | 355° |
| 2026-05-07 06:33 | 40.74878 | 7.18564 | 35999 ft | 490 kts | 355° |
| 2026-05-07 06:33 | 40.81694 | 7.19174 | 36004 ft | 490 kts | 355° |
| 2026-05-07 06:34 | 40.88501 | 7.19784 | 36001 ft | 490 kts | 355° |
| 2026-05-07 06:34 | 40.95300 | 7.20247 | 36001 ft | 488 kts | 354° |
| 2026-05-07 06:35 | 41.02087 | 7.20577 | 36005 ft | 488 kts | 354° |
| 2026-05-07 06:35 | 41.08879 | 7.20902 | 36005 ft | 488 kts | 354° |
| 2026-05-07 06:36 | 41.15672 | 7.21247 | 36013 ft | 488 kts | 354° |
| 2026-05-07 06:36 | 41.22464 | 7.21604 | 36009 ft | 488 kts | 354° |
| 2026-05-07 06:37 | 41.29252 | 7.21962 | 36010 ft | 488 kts | 354° |
| 2026-05-07 06:37 | 41.36037 | 7.22321 | 36020 ft | 488 kts | 355° |
| 2026-05-07 06:38 | 41.42779 | 7.22678 | 36013 ft | 487 kts | 355° |
| 2026-05-07 06:38 | 41.49555 | 7.23037 | 36010 ft | 487 kts | 355° |
| 2026-05-07 06:39 | 41.56336 | 7.23396 | 36031 ft | 487 kts | 355° |
| 2026-05-07 06:39 | 41.63115 | 7.23767 | 36012 ft | 487 kts | 355° |
| 2026-05-07 06:40 | 41.69892 | 7.24199 | 36013 ft | 487 kts | 355° |
| 2026-05-07 06:40 | 41.76662 | 7.24650 | 36034 ft | 487 kts | 356° |
| 2026-05-07 06:41 | 41.83435 | 7.25099 | 36020 ft | 487 kts | 356° |
| 2026-05-07 06:41 | 41.90202 | 7.25543 | 36008 ft | 487 kts | 356° |
| 2026-05-07 06:42 | 41.96968 | 7.25986 | 36034 ft | 487 kts | 356° |
| 2026-05-07 06:42 | 42.03732 | 7.26430 | 36013 ft | 486 kts | 356° |
| 2026-05-07 06:43 | 42.10450 | 7.26872 | 36015 ft | 486 kts | 356° |
| 2026-05-07 06:43 | 42.17217 | 7.27319 | 36007 ft | 486 kts | 356° |
| 2026-05-07 06:44 | 42.23979 | 7.27766 | 36009 ft | 486 kts | 356° |
| 2026-05-07 06:44 | 42.30738 | 7.28214 | 36005 ft | 486 kts | 356° |
| 2026-05-07 06:45 | 42.37499 | 7.28664 | 36003 ft | 486 kts | 356° |
| 2026-05-07 06:45 | 42.44261 | 7.29114 | 36001 ft | 486 kts | 356° |
| 2026-05-07 06:46 | 42.51018 | 7.29566 | 35999 ft | 486 kts | 356° |
| 2026-05-07 06:46 | 42.57780 | 7.30018 | 35996 ft | 486 kts | 356° |
| 2026-05-07 06:47 | 42.64543 | 7.30472 | 35990 ft | 486 kts | 356° |
| 2026-05-07 06:47 | 42.71302 | 7.30926 | 35990 ft | 486 kts | 356° |
| 2026-05-07 06:48 | 42.78058 | 7.31381 | 35990 ft | 486 kts | 356° |
| 2026-05-07 06:48 | 42.83680 | 7.31760 | 35989 ft | 486 kts | 356° |
| 2026-05-07 06:49 | 42.90442 | 7.32217 | 35990 ft | 486 kts | 356° |
| 2026-05-07 06:49 | 42.98289 | 7.32749 | 35981 ft | 486 kts | 356° |
| 2026-05-07 06:50 | 43.05048 | 7.33208 | 35974 ft | 486 kts | 356° |
| 2026-05-07 06:50 | 43.10701 | 7.33593 | 35975 ft | 485 kts | 356° |
| 2026-05-07 06:51 | 43.17404 | 7.34050 | 35964 ft | 485 kts | 356° |
| 2026-05-07 06:51 | 43.24147 | 7.34509 | 35965 ft | 485 kts | 356° |
| 2026-05-07 06:52 | 43.30888 | 7.34970 | 35959 ft | 485 kts | 356° |
| 2026-05-07 06:52 | 43.37625 | 7.35431 | 35960 ft | 485 kts | 356° |
| 2026-05-07 06:53 | 43.44365 | 7.35893 | 35951 ft | 485 kts | 357° |
| 2026-05-07 06:53 | 43.51102 | 7.36357 | 35953 ft | 485 kts | 357° |
| 2026-05-07 06:54 | 43.57824 | 7.36591 | 35951 ft | 479 kts | 349° |
| 2026-05-07 06:54 | 43.64189 | 7.34630 | 35967 ft | 463 kts | 331° |
| 2026-05-07 06:55 | 43.69750 | 7.30383 | 35963 ft | 455 kts | 322° |
| 2026-05-07 06:55 | 43.75032 | 7.25573 | 35965 ft | 454 kts | 320° |
| 2026-05-07 06:56 | 43.80272 | 7.20668 | 35976 ft | 454 kts | 320° |
| 2026-05-07 06:56 | 43.85521 | 7.15784 | 35957 ft | 455 kts | 321° |
| 2026-05-07 06:57 | 43.90755 | 7.10946 | 35959 ft | 455 kts | 321° |
| 2026-05-07 06:57 | 43.96035 | 7.06068 | 35959 ft | 456 kts | 321° |
| 2026-05-07 06:58 | 44.01308 | 7.01186 | 35977 ft | 455 kts | 321° |
| 2026-05-07 06:58 | 44.06584 | 6.96291 | 35953 ft | 456 kts | 321° |
| 2026-05-07 06:59 | 44.11942 | 6.91548 | 35963 ft | 460 kts | 327° |
| 2026-05-07 06:59 | 44.18054 | 6.88631 | 35975 ft | 472 kts | 344° |
| 2026-05-07 07:00 | 44.24587 | 6.87354 | 35967 ft | 476 kts | 348° |
| 2026-05-07 07:00 | 44.31179 | 6.86406 | 35969 ft | 476 kts | 349° |
| 2026-05-07 07:01 | 44.37773 | 6.85478 | 35979 ft | 476 kts | 349° |
| 2026-05-07 07:01 | 44.44355 | 6.84512 | 35989 ft | 476 kts | 349° |
| 2026-05-07 07:02 | 44.50933 | 6.83512 | 36002 ft | 474 kts | 348° |
| 2026-05-07 07:02 | 44.57442 | 6.82517 | 36006 ft | 473 kts | 348° |
| 2026-05-07 07:03 | 44.63985 | 6.81513 | 36003 ft | 473 kts | 348° |
| 2026-05-07 07:03 | 44.70522 | 6.80509 | 36012 ft | 473 kts | 348° |
| 2026-05-07 07:04 | 44.77071 | 6.79503 | 36006 ft | 473 kts | 348° |
| 2026-05-07 07:04 | 44.83639 | 6.78690 | 36011 ft | 475 kts | 352° |
| 2026-05-07 07:05 | 44.90244 | 6.78274 | 36009 ft | 475 kts | 353° |
| 2026-05-07 07:05 | 44.96856 | 6.77913 | 36009 ft | 475 kts | 353° |
| 2026-05-07 07:06 | 45.03469 | 6.77510 | 36015 ft | 475 kts | 353° |
| 2026-05-07 07:06 | 45.10070 | 6.77079 | 36013 ft | 475 kts | 353° |